Time,TemperatureF,DewpointF,PressureIn,WindDirection,WindDirectionDegrees,WindSpeedMPH,WindSpeedGustMPH,Humidity,HourlyPrecipIn,Conditions,Clouds,dailyrainin,SoftwareType,DateUTC
2013-07-23 00:00:00,72.6,71.1,29.75,ESE,120,1.0,1.0,95,0.00,,,0.02,Wunderground v.1.15,2013-07-23 04:00:00,
2013-07-23 00:02:00,72.6,71.1,29.75,SSW,205,1.0,1.0,95,0.00,,,0.00,Wunderground v.1.15,2013-07-23 04:02:00,
2013-07-23 00:04:00,72.6,71.1,29.75,SSW,198,1.0,1.0,95,0.00,,,0.00,Wunderground v.1.15,2013-07-23 04:04:00,
2013-07-23 00:06:00,72.5,71.0,29.75,SE,132,1.0,1.0,95,0.00,,,0.00,Wunderground v.1.15,2013-07-23 04:06:00,
2013-07-23 00:08:00,72.5,71.0,29.75,SSE,148,1.0,1.0,95,0.00,,,0.00,Wunderground v.1.15,2013-07-23 04:08:00,
2013-07-23 00:10:00,72.5,71.0,29.75,SSE,148,0.0,0.0,95,0.00,,,0.00,Wunderground v.1.15,2013-07-23 04:10:00,
2013-07-23 00:11:00,72.4,70.9,29.75,SSE,148,0.0,0.0,95,0.00,,,0.00,Wunderground v.1.15,2013-07-23 04:11:00,
2013-07-23 00:15:00,72.4,70.9,29.75,SSE,148,0.0,0.0,95,0.00,,,0.00,Wunderground v.1.15,2013-07-23 04:15:00,
2013-07-23 00:17:00,72.4,70.9,29.75,SSE,148,0.0,0.0,95,0.00,,,0.00,Wunderground v.1.15,2013-07-23 04:17:00,
2013-07-23 00:19:00,72.4,70.9,29.75,SSE,148,0.0,0.0,95,0.00,,,0.00,Wunderground v.1.15,2013-07-23 04:19:00,
2013-07-23 00:21:00,72.4,70.9,29.75,SSE,148,0.0,0.0,95,0.00,,,0.00,Wunderground v.1.15,2013-07-23 04:21:00,
2013-07-23 00:23:00,72.4,70.9,29.75,SSE,148,0.0,0.0,95,0.00,,,0.00,Wunderground v.1.15,2013-07-23 04:23:00,
2013-07-23 00:25:00,72.4,70.9,29.75,West,273,0.0,0.0,95,0.00,,,0.00,Wunderground v.1.15,2013-07-23 04:25:00,
2013-07-23 00:28:00,72.5,71.0,29.75,WSW,252,0.0,0.0,95,0.00,,,0.00,Wunderground v.1.15,2013-07-23 04:28:00,
2013-07-23 00:30:00,72.5,71.0,29.75,SSW,201,0.0,0.0,95,0.00,,,0.00,Wunderground v.1.15,2013-07-23 04:30:00,
2013-07-23 00:31:00,72.5,71.0,29.75,SSE,164,0.0,2.0,95,0.00,,,0.00,Wunderground v.1.15,2013-07-23 04:31:00,
2013-07-23 00:36:00,72.4,70.9,29.75,South,191,1.0,2.0,95,0.00,,,0.00,Wunderground v.1.15,2013-07-23 04:36:00,
2013-07-23 00:37:00,72.4,70.9,29.74,SSW,192,1.0,2.0,95,0.00,,,0.00,Wunderground v.1.15,2013-07-23 04:37:00,
2013-07-23 00:39:00,72.4,70.9,29.74,SSW,193,1.0,2.0,95,0.00,,,0.00,Wunderground v.1.15,2013-07-23 04:39:00,
2013-07-23 00:43:00,72.3,70.5,29.74,SE,132,1.0,1.0,94,0.00,,,0.00,Wunderground v.1.15,2013-07-23 04:43:00,
2013-07-23 00:47:00,72.3,70.5,29.74,South,176,0.0,1.0,94,0.00,,,0.00,Wunderground v.1.15,2013-07-23 04:47:00,
2013-07-23 00:49:00,72.3,70.5,29.73,ENE,68,0.0,2.0,94,0.00,,,0.00,Wunderground v.1.15,2013-07-23 04:49:00,
2013-07-23 00:51:00,72.3,70.5,29.73,NE,55,1.0,3.0,94,0.00,,,0.00,Wunderground v.1.15,2013-07-23 04:51:00,
2013-07-23 00:56:00,72.3,70.5,29.72,ENE,64,2.0,3.0,94,0.00,,,0.00,Wunderground v.1.15,2013-07-23 04:56:00,
2013-07-23 01:00:00,72.3,70.5,29.73,ENE,61,2.0,2.0,94,0.00,,,0.00,Wunderground v.1.15,2013-07-23 05:00:00,
2013-07-23 01:02:00,72.3,70.5,29.73,ENE,61,1.0,2.0,94,0.00,,,0.00,Wunderground v.1.15,2013-07-23 05:02:00,
2013-07-23 01:06:00,72.3,70.5,29.73,SSE,162,1.0,2.0,94,0.00,,,0.00,Wunderground v.1.15,2013-07-23 05:06:00,
2013-07-23 01:08:00,72.2,70.4,29.73,SSW,194,1.0,2.0,94,0.00,,,0.00,Wunderground v.1.15,2013-07-23 05:08:00,
2013-07-23 01:10:00,72.2,70.4,29.73,SSW,193,1.0,1.0,94,0.00,,,0.00,Wunderground v.1.15,2013-07-23 05:10:00,
2013-07-23 01:12:00,72.2,70.4,29.73,SSW,193,1.0,1.0,94,0.00,,,0.00,Wunderground v.1.15,2013-07-23 05:12:00,
2013-07-23 01:14:00,72.1,70.3,29.72,SSW,193,1.0,1.0,94,0.00,,,0.00,Wunderground v.1.15,2013-07-23 05:14:00,
2013-07-23 01:20:00,72.0,70.5,29.73,WSW,238,1.0,1.0,95,0.00,,,0.00,Wunderground v.1.15,2013-07-23 05:20:00,
2013-07-23 01:23:00,72.0,70.5,29.73,WSW,242,1.0,1.0,95,0.00,,,0.00,Wunderground v.1.15,2013-07-23 05:23:00,
2013-07-23 01:25:00,71.9,70.4,29.73,WSW,246,1.0,1.0,95,0.00,,,0.00,Wunderground v.1.15,2013-07-23 05:25:00,
2013-07-23 01:29:00,71.8,70.3,29.73,WSW,245,1.0,1.0,95,0.00,,,0.00,Wunderground v.1.15,2013-07-23 05:29:00,
2013-07-23 01:31:00,71.7,70.2,29.73,WSW,244,1.0,1.0,95,0.00,,,0.00,Wunderground v.1.15,2013-07-23 05:31:00,
2013-07-23 01:33:00,71.6,70.1,29.73,West,259,1.0,1.0,95,0.00,,,0.00,Wunderground v.1.15,2013-07-23 05:33:00,
2013-07-23 01:35:00,71.5,70.0,29.73,West,266,1.0,2.0,95,0.00,,,0.00,Wunderground v.1.15,2013-07-23 05:35:00,
2013-07-23 01:39:00,71.4,69.9,29.73,West,263,1.0,2.0,95,0.00,,,0.00,Wunderground v.1.15,2013-07-23 05:39:00,
2013-07-23 01:41:00,71.3,69.8,29.72,West,263,1.0,1.0,95,0.00,,,0.00,Wunderground v.1.15,2013-07-23 05:41:00,
2013-07-23 01:43:00,71.2,69.7,29.72,West,263,1.0,1.0,95,0.00,,,0.00,Wunderground v.1.15,2013-07-23 05:43:00,
2013-07-23 01:45:00,71.1,69.6,29.72,West,263,0.0,1.0,95,0.00,,,0.00,Wunderground v.1.15,2013-07-23 05:45:00,
2013-07-23 01:47:00,71.1,69.6,29.72,West,263,0.0,1.0,95,0.00,,,0.00,Wunderground v.1.15,2013-07-23 05:47:00,
2013-07-23 01:49:00,71.1,69.6,29.72,West,263,0.0,1.0,95,0.00,,,0.00,Wunderground v.1.15,2013-07-23 05:49:00,
2013-07-23 01:54:00,71.0,69.5,29.72,West,262,1.0,1.0,95,0.00,,,0.00,Wunderground v.1.15,2013-07-23 05:54:00,
2013-07-23 01:55:00,71.0,69.5,29.72,West,262,1.0,1.0,95,0.00,,,0.00,Wunderground v.1.15,2013-07-23 05:55:00,
2013-07-23 01:57:00,71.0,69.5,29.72,West,261,1.0,2.0,95,0.00,,,0.00,Wunderground v.1.15,2013-07-23 05:57:00,
2013-07-23 01:59:00,71.1,69.6,29.72,West,266,1.0,2.0,95,0.00,,,0.00,Wunderground v.1.15,2013-07-23 05:59:00,
2013-07-23 02:00:00,71.1,69.6,29.72,West,259,1.0,1.0,95,0.00,,,0.00,Wunderground v.1.15,2013-07-23 06:00:00,
2013-07-23 02:01:00,71.1,69.6,29.72,WSW,240,1.0,2.0,95,0.00,,,0.00,Wunderground v.1.15,2013-07-23 06:01:00,
2013-07-23 02:04:00,71.2,69.7,29.72,SW,222,1.0,2.0,95,0.00,,,0.00,Wunderground v.1.15,2013-07-23 06:04:00,
2013-07-23 02:06:00,71.2,69.7,29.72,SSE,163,1.0,2.0,95,0.00,,,0.00,Wunderground v.1.15,2013-07-23 06:06:00,
2013-07-23 02:10:00,71.1,69.6,29.72,South,170,1.0,1.0,95,0.00,,,0.00,Wunderground v.1.15,2013-07-23 06:10:00,
2013-07-23 02:12:00,71.1,69.6,29.72,South,181,0.0,1.0,95,0.00,,,0.00,Wunderground v.1.15,2013-07-23 06:12:00,
2013-07-23 02:14:00,71.1,69.6,29.72,SSW,192,0.0,1.0,95,0.00,,,0.00,Wunderground v.1.15,2013-07-23 06:14:00,
2013-07-23 02:16:00,71.1,69.6,29.72,SSW,201,0.0,2.0,95,0.00,,,0.00,Wunderground v.1.15,2013-07-23 06:16:00,
2013-07-23 02:18:00,71.1,69.6,29.72,South,187,1.0,2.0,95,0.00,,,0.00,Wunderground v.1.15,2013-07-23 06:18:00,
2013-07-23 02:22:00,71.0,69.5,29.72,SE,134,1.0,1.0,95,0.00,,,0.00,Wunderground v.1.15,2013-07-23 06:22:00,
2013-07-23 02:24:00,71.0,69.5,29.72,SE,143,1.0,2.0,95,0.00,,,0.00,Wunderground v.1.15,2013-07-23 06:24:00,
2013-07-23 02:27:00,70.9,69.4,29.71,SE,135,1.0,2.0,95,0.00,,,0.00,Wunderground v.1.15,2013-07-23 06:27:00,
2013-07-23 02:31:00,70.7,69.2,29.71,SSE,167,0.0,1.0,95,0.00,,,0.00,Wunderground v.1.15,2013-07-23 06:31:00,
2013-07-23 02:33:00,70.7,69.2,29.71,SSE,167,0.0,1.0,95,0.00,,,0.00,Wunderground v.1.15,2013-07-23 06:33:00,
2013-07-23 02:35:00,70.7,69.2,29.71,SSE,168,0.0,2.0,95,0.00,,,0.00,Wunderground v.1.15,2013-07-23 06:35:00,
2013-07-23 02:37:00,70.6,69.1,29.71,SSE,167,0.0,2.0,95,0.00,,,0.00,Wunderground v.1.15,2013-07-23 06:37:00,
2013-07-23 02:41:00,70.5,69.0,29.71,SW,235,1.0,1.0,95,0.00,,,0.00,Wunderground v.1.15,2013-07-23 06:41:00,
2013-07-23 02:43:00,70.5,69.0,29.71,WSW,248,1.0,1.0,95,0.00,,,0.00,Wunderground v.1.15,2013-07-23 06:43:00,
2013-07-23 02:45:00,70.5,69.0,29.71,WSW,248,1.0,1.0,95,0.00,,,0.00,Wunderground v.1.15,2013-07-23 06:45:00,
2013-07-23 02:46:00,70.5,69.0,29.71,WSW,248,1.0,1.0,95,0.00,,,0.00,Wunderground v.1.15,2013-07-23 06:46:00,
2013-07-23 02:48:00,70.4,69.2,29.71,WSW,246,1.0,1.0,96,0.00,,,0.00,Wunderground v.1.15,2013-07-23 06:48:00,
2013-07-23 02:50:00,70.4,69.2,29.71,WSW,243,1.0,1.0,96,0.00,,,0.00,Wunderground v.1.15,2013-07-23 06:50:00,
2013-07-23 02:52:00,70.5,69.3,29.71,WSW,240,1.0,1.0,96,0.00,,,0.00,Wunderground v.1.15,2013-07-23 06:52:00,
2013-07-23 02:54:00,70.4,69.2,29.71,WSW,240,1.0,1.0,96,0.00,,,0.00,Wunderground v.1.15,2013-07-23 06:54:00,
2013-07-23 02:56:00,70.5,69.3,29.70,WSW,240,1.0,1.0,96,0.00,,,0.00,Wunderground v.1.15,2013-07-23 06:56:00,
2013-07-23 02:58:00,70.4,69.2,29.71,WSW,240,1.0,1.0,96,0.00,,,0.00,Wunderground v.1.15,2013-07-23 06:58:00,
2013-07-23 03:00:00,70.4,68.9,29.70,WSW,240,0.0,0.0,95,0.00,,,0.00,Wunderground v.1.15,2013-07-23 07:00:00,
2013-07-23 03:04:00,70.3,68.8,29.71,WSW,240,0.0,0.0,95,0.00,,,0.00,Wunderground v.1.15,2013-07-23 07:04:00,
2013-07-23 03:06:00,70.3,68.8,29.70,SSW,207,0.0,1.0,95,0.00,,,0.00,Wunderground v.1.15,2013-07-23 07:06:00,
2013-07-23 03:10:00,70.3,68.8,29.70,SSW,197,0.0,0.0,95,0.00,,,0.00,Wunderground v.1.15,2013-07-23 07:10:00,
2013-07-23 03:12:00,70.3,68.8,29.70,SSW,197,0.0,0.0,95,0.00,,,0.00,Wunderground v.1.15,2013-07-23 07:12:00,
2013-07-23 03:14:00,70.3,68.8,29.71,SSW,197,0.0,0.0,95,0.00,,,0.00,Wunderground v.1.15,2013-07-23 07:14:00,
2013-07-23 03:16:00,70.2,68.7,29.71,SSW,198,0.0,0.0,95,0.00,,,0.00,Wunderground v.1.15,2013-07-23 07:16:00,
2013-07-23 03:19:00,70.2,68.7,29.71,SSW,197,0.0,0.0,95,0.00,,,0.00,Wunderground v.1.15,2013-07-23 07:19:00,
2013-07-23 03:20:00,70.1,68.6,29.70,SSW,197,0.0,0.0,95,0.00,,,0.00,Wunderground v.1.15,2013-07-23 07:20:00,
2013-07-23 03:22:00,70.1,68.6,29.70,SSW,197,0.0,0.0,95,0.00,,,0.00,Wunderground v.1.15,2013-07-23 07:22:00,
2013-07-23 03:23:00,70.1,68.6,29.71,SSW,197,0.0,0.0,95,0.00,,,0.00,Wunderground v.1.15,2013-07-23 07:23:00,
2013-07-23 03:27:00,70.1,68.9,29.71,SSW,197,0.0,0.0,96,0.00,,,0.00,Wunderground v.1.15,2013-07-23 07:27:00,
2013-07-23 03:29:00,70.1,68.9,29.70,SSW,197,0.0,0.0,96,0.00,,,0.00,Wunderground v.1.15,2013-07-23 07:29:00,
2013-07-23 03:31:00,70.1,68.9,29.71,SE,132,0.0,0.0,96,0.00,,,0.00,Wunderground v.1.15,2013-07-23 07:31:00,
2013-07-23 03:33:00,70.1,68.9,29.71,SE,134,0.0,0.0,96,0.00,,,0.00,Wunderground v.1.15,2013-07-23 07:33:00,
2013-07-23 03:35:00,70.1,68.9,29.70,SE,128,0.0,1.0,96,0.00,,,0.00,Wunderground v.1.15,2013-07-23 07:35:00,
2013-07-23 03:37:00,70.1,68.9,29.70,SE,129,0.0,1.0,96,0.00,,,0.00,Wunderground v.1.15,2013-07-23 07:37:00,
2013-07-23 03:39:00,70.0,68.8,29.70,SE,128,0.0,1.0,96,0.00,,,0.00,Wunderground v.1.15,2013-07-23 07:39:00,
2013-07-23 03:43:00,70.0,68.8,29.70,SE,129,0.0,0.0,96,0.00,,,0.00,Wunderground v.1.15,2013-07-23 07:43:00,
2013-07-23 03:46:00,70.1,68.9,29.70,SE,129,0.0,0.0,96,0.00,,,0.00,Wunderground v.1.15,2013-07-23 07:46:00,
2013-07-23 03:47:00,70.1,68.9,29.70,SE,128,0.0,0.0,96,0.00,,,0.00,Wunderground v.1.15,2013-07-23 07:47:00,
2013-07-23 03:49:00,70.1,68.9,29.70,SSE,148,0.0,0.0,96,0.00,,,0.00,Wunderground v.1.15,2013-07-23 07:49:00,
2013-07-23 03:50:00,70.1,68.9,29.70,SSE,161,0.0,1.0,96,0.00,,,0.00,Wunderground v.1.15,2013-07-23 07:50:00,
2013-07-23 03:53:00,70.2,69.0,29.70,South,172,0.0,1.0,96,0.00,,,0.00,Wunderground v.1.15,2013-07-23 07:53:00,
2013-07-23 03:56:00,70.3,69.1,29.70,South,172,0.0,1.0,96,0.00,,,0.00,Wunderground v.1.15,2013-07-23 07:56:00,
2013-07-23 03:58:00,70.3,69.1,29.70,ESE,115,1.0,1.0,96,0.00,,,0.00,Wunderground v.1.15,2013-07-23 07:58:00,
2013-07-23 04:00:00,70.3,69.1,29.70,ESE,114,1.0,1.0,96,0.00,,,0.00,Wunderground v.1.15,2013-07-23 08:00:00,
2013-07-23 04:01:00,70.3,69.1,29.70,SSE,167,1.0,1.0,96,0.00,,,0.00,Wunderground v.1.15,2013-07-23 08:01:00,
2013-07-23 04:04:00,70.3,69.1,29.70,South,172,1.0,1.0,96,0.00,,,0.00,Wunderground v.1.15,2013-07-23 08:04:00,
2013-07-23 04:05:00,70.2,69.0,29.70,South,172,1.0,1.0,96,0.00,,,0.00,Wunderground v.1.15,2013-07-23 08:05:00,
2013-07-23 04:07:00,70.2,69.0,29.70,South,172,1.0,1.0,96,0.00,,,0.00,Wunderground v.1.15,2013-07-23 08:07:00,
2013-07-23 04:11:00,70.2,69.0,29.70,SE,146,0.0,1.0,96,0.00,,,0.00,Wunderground v.1.15,2013-07-23 08:11:00,
2013-07-23 04:13:00,70.2,69.0,29.70,SE,145,0.0,1.0,96,0.00,,,0.00,Wunderground v.1.15,2013-07-23 08:13:00,
2013-07-23 04:15:00,70.2,69.0,29.70,SE,145,0.0,1.0,96,0.00,,,0.00,Wunderground v.1.15,2013-07-23 08:15:00,
2013-07-23 04:17:00,70.2,69.0,29.70,SSE,151,0.0,1.0,96,0.00,,,0.00,Wunderground v.1.15,2013-07-23 08:17:00,
2013-07-23 04:19:00,70.3,69.1,29.70,SSE,150,0.0,1.0,96,0.00,,,0.00,Wunderground v.1.15,2013-07-23 08:19:00,
2013-07-23 04:22:00,70.3,69.1,29.70,SSE,150,0.0,0.0,96,0.00,,,0.00,Wunderground v.1.15,2013-07-23 08:22:00,
2013-07-23 04:23:00,70.3,69.1,29.70,SSE,150,0.0,0.0,96,0.00,,,0.00,Wunderground v.1.15,2013-07-23 08:23:00,
2013-07-23 04:25:00,70.3,69.1,29.70,SSE,150,0.0,0.0,96,0.00,,,0.00,Wunderground v.1.15,2013-07-23 08:25:00,
2013-07-23 04:28:00,70.4,69.2,29.70,SSE,163,0.0,0.0,96,0.00,,,0.00,Wunderground v.1.15,2013-07-23 08:28:00,
2013-07-23 04:32:00,70.5,69.3,29.70,SSE,164,0.0,0.0,96,0.00,,,0.00,Wunderground v.1.15,2013-07-23 08:32:00,
2013-07-23 04:34:00,70.5,69.3,29.70,WSW,238,0.0,1.0,96,0.00,,,0.00,Wunderground v.1.15,2013-07-23 08:34:00,
2013-07-23 04:36:00,70.5,69.3,29.70,WSW,237,0.0,1.0,96,0.00,,,0.00,Wunderground v.1.15,2013-07-23 08:36:00,
2013-07-23 04:38:00,70.5,69.3,29.70,SSW,211,0.0,1.0,96,0.00,,,0.00,Wunderground v.1.15,2013-07-23 08:38:00,
2013-07-23 04:42:00,70.5,69.3,29.71,SSW,211,1.0,1.0,96,0.00,,,0.00,Wunderground v.1.15,2013-07-23 08:42:00,
2013-07-23 04:43:00,70.6,69.4,29.71,SSW,211,1.0,1.0,96,0.00,,,0.00,Wunderground v.1.15,2013-07-23 08:43:00,
2013-07-23 04:44:00,70.6,69.1,29.71,SSW,211,1.0,1.0,95,0.00,,,0.00,Wunderground v.1.15,2013-07-23 08:44:00,
2013-07-23 04:46:00,70.6,69.4,29.71,SW,226,1.0,1.0,96,0.00,,,0.00,Wunderground v.1.15,2013-07-23 08:46:00,
2013-07-23 04:47:00,70.6,69.4,29.71,SW,226,1.0,1.0,96,0.00,,,0.00,Wunderground v.1.15,2013-07-23 08:47:00,
2013-07-23 04:51:00,70.6,69.1,29.71,SSW,194,1.0,1.0,95,0.00,,,0.00,Wunderground v.1.15,2013-07-23 08:51:00,
2013-07-23 04:53:00,70.6,69.1,29.71,SSW,200,1.0,1.0,95,0.00,,,0.00,Wunderground v.1.15,2013-07-23 08:53:00,
2013-07-23 04:54:00,70.6,69.1,29.70,SSW,200,1.0,1.0,95,0.00,,,0.00,Wunderground v.1.15,2013-07-23 08:54:00,
2013-07-23 04:57:00,70.5,69.0,29.71,SSE,167,1.0,2.0,95,0.00,,,0.00,Wunderground v.1.15,2013-07-23 08:57:00,
2013-07-23 04:59:00,70.6,69.1,29.70,SSW,198,1.0,2.0,95,0.00,,,0.00,Wunderground v.1.15,2013-07-23 08:59:00,
2013-07-23 05:01:00,70.5,69.0,29.71,South,191,1.0,2.0,95,0.00,,,0.00,Wunderground v.1.15,2013-07-23 09:01:00,
2013-07-23 05:03:00,70.5,69.0,29.70,SSE,161,1.0,2.0,95,0.00,,,0.00,Wunderground v.1.15,2013-07-23 09:03:00,
2013-07-23 05:05:00,70.5,69.0,29.70,SSW,197,1.0,2.0,95,0.00,,,0.00,Wunderground v.1.15,2013-07-23 09:05:00,
2013-07-23 05:07:00,70.5,69.0,29.71,SSW,198,1.0,2.0,95,0.00,,,0.00,Wunderground v.1.15,2013-07-23 09:07:00,
2013-07-23 05:09:00,70.5,69.0,29.71,SSW,197,1.0,1.0,95,0.00,,,0.00,Wunderground v.1.15,2013-07-23 09:09:00,
2013-07-23 05:11:00,70.5,69.0,29.70,SSW,195,0.0,1.0,95,0.00,,,0.00,Wunderground v.1.15,2013-07-23 09:11:00,
2013-07-23 05:13:00,70.6,69.1,29.70,ESE,113,0.0,1.0,95,0.00,,,0.00,Wunderground v.1.15,2013-07-23 09:13:00,
2013-07-23 05:15:00,70.5,69.0,29.70,ESE,113,0.0,1.0,95,0.00,,,0.00,Wunderground v.1.15,2013-07-23 09:15:00,
2013-07-23 05:17:00,70.5,69.0,29.71,ESE,113,0.0,1.0,95,0.00,,,0.00,Wunderground v.1.15,2013-07-23 09:17:00,
2013-07-23 05:20:00,70.5,69.0,29.71,SE,145,0.0,0.0,95,0.00,,,0.00,Wunderground v.1.15,2013-07-23 09:20:00,
2013-07-23 05:23:00,70.4,68.9,29.71,SE,140,0.0,0.0,95,0.00,,,0.00,Wunderground v.1.15,2013-07-23 09:23:00,
2013-07-23 05:24:00,70.4,68.9,29.71,SE,140,0.0,0.0,95,0.00,,,0.00,Wunderground v.1.15,2013-07-23 09:24:00,
2013-07-23 05:27:00,70.4,68.9,29.71,SE,139,0.0,0.0,95,0.00,,,0.00,Wunderground v.1.15,2013-07-23 09:27:00,
2013-07-23 05:28:00,70.3,68.8,29.71,SE,139,0.0,0.0,95,0.00,,,0.00,Wunderground v.1.15,2013-07-23 09:28:00,
2013-07-23 05:32:00,70.3,69.1,29.71,SE,139,0.0,1.0,96,0.00,,,0.00,Wunderground v.1.15,2013-07-23 09:32:00,
2013-07-23 05:36:00,70.2,69.0,29.71,SE,139,0.0,1.0,96,0.00,,,0.00,Wunderground v.1.15,2013-07-23 09:36:00,
2013-07-23 05:38:00,70.1,68.9,29.71,SE,140,0.0,1.0,96,0.00,,,0.00,Wunderground v.1.15,2013-07-23 09:38:00,
2013-07-23 05:40:00,70.1,68.9,29.71,SE,139,0.0,1.0,96,0.00,,,0.00,Wunderground v.1.15,2013-07-23 09:40:00,
2013-07-23 05:42:00,70.0,68.8,29.70,SE,132,0.0,1.0,96,0.00,,,0.00,Wunderground v.1.15,2013-07-23 09:42:00,
2013-07-23 05:46:00,69.9,68.7,29.71,SE,134,0.0,1.0,96,0.00,,,0.00,Wunderground v.1.15,2013-07-23 09:46:00,
2013-07-23 05:47:00,69.9,68.7,29.71,SE,134,0.0,1.0,96,0.00,,,0.00,Wunderground v.1.15,2013-07-23 09:47:00,
2013-07-23 05:49:00,69.9,68.7,29.71,SE,134,0.0,0.0,96,0.00,,,0.00,Wunderground v.1.15,2013-07-23 09:49:00,
2013-07-23 05:53:00,69.7,68.5,29.71,SE,134,0.0,0.0,96,0.00,,,0.00,Wunderground v.1.15,2013-07-23 09:53:00,
2013-07-23 05:55:00,69.7,68.5,29.71,South,187,0.0,0.0,96,0.00,,,0.00,Wunderground v.1.15,2013-07-23 09:55:00,
2013-07-23 05:59:00,69.7,68.5,29.71,WSW,245,0.0,0.0,96,0.00,,,0.00,Wunderground v.1.15,2013-07-23 09:59:00,
2013-07-23 06:00:00,69.7,68.5,29.71,WSW,245,0.0,0.0,96,0.00,,,0.00,Wunderground v.1.15,2013-07-23 10:00:00,
2013-07-23 06:02:00,69.7,68.5,29.71,WSW,245,0.0,0.0,96,0.00,,,0.00,Wunderground v.1.15,2013-07-23 10:02:00,
2013-07-23 06:04:00,69.6,68.4,29.71,WSW,245,0.0,0.0,96,0.00,,,0.00,Wunderground v.1.15,2013-07-23 10:04:00,
2013-07-23 06:06:00,69.5,68.3,29.71,WSW,245,0.0,0.0,96,0.00,,,0.00,Wunderground v.1.15,2013-07-23 10:06:00,
2013-07-23 06:08:00,69.5,68.3,29.71,WSW,245,0.0,0.0,96,0.00,,,0.00,Wunderground v.1.15,2013-07-23 10:08:00,
2013-07-23 06:10:00,69.4,68.2,29.71,WSW,245,0.0,0.0,96,0.00,,,0.00,Wunderground v.1.15,2013-07-23 10:10:00,
2013-07-23 06:12:00,69.4,68.2,29.71,WSW,245,0.0,0.0,96,0.00,,,0.00,Wunderground v.1.15,2013-07-23 10:12:00,
2013-07-23 06:13:00,69.4,68.2,29.71,WSW,245,0.0,0.0,96,0.00,,,0.00,Wunderground v.1.15,2013-07-23 10:13:00,
2013-07-23 06:16:00,69.3,68.1,29.71,WSW,245,0.0,0.0,96,0.00,,,0.00,Wunderground v.1.15,2013-07-23 10:16:00,
2013-07-23 06:17:00,69.3,68.1,29.71,WSW,245,0.0,0.0,96,0.00,,,0.00,Wunderground v.1.15,2013-07-23 10:17:00,
2013-07-23 06:21:00,69.3,68.4,29.71,SE,142,0.0,1.0,97,0.00,,,0.00,Wunderground v.1.15,2013-07-23 10:21:00,
2013-07-23 06:23:00,69.3,68.4,29.71,South,186,0.0,1.0,97,0.00,,,0.00,Wunderground v.1.15,2013-07-23 10:23:00,
2013-07-23 06:27:00,69.4,68.5,29.71,South,186,0.0,1.0,97,0.00,,,0.00,Wunderground v.1.15,2013-07-23 10:27:00,
2013-07-23 06:29:00,69.4,68.5,29.71,South,186,0.0,1.0,97,0.00,,,0.00,Wunderground v.1.15,2013-07-23 10:29:00,
2013-07-23 06:35:00,69.3,68.4,29.71,South,186,0.0,1.0,97,0.00,,,0.00,Wunderground v.1.15,2013-07-23 10:35:00,
2013-07-23 06:37:00,69.4,68.5,29.71,South,186,0.0,1.0,97,0.00,,,0.00,Wunderground v.1.15,2013-07-23 10:37:00,
2013-07-23 06:39:00,69.3,68.4,29.71,South,186,0.0,0.0,97,0.00,,,0.00,Wunderground v.1.15,2013-07-23 10:39:00,
2013-07-23 06:43:00,69.3,68.4,29.71,South,186,0.0,1.0,97,0.00,,,0.00,Wunderground v.1.15,2013-07-23 10:43:00,
2013-07-23 06:44:00,69.3,68.4,29.71,South,186,0.0,1.0,97,0.00,,,0.00,Wunderground v.1.15,2013-07-23 10:44:00,
2013-07-23 06:45:00,69.3,68.4,29.72,South,186,0.0,1.0,97,0.00,,,0.00,Wunderground v.1.15,2013-07-23 10:45:00,
2013-07-23 06:48:00,69.3,68.4,29.72,SW,235,1.0,1.0,97,0.00,,,0.00,Wunderground v.1.15,2013-07-23 10:48:00,
2013-07-23 06:51:00,69.5,68.6,29.72,SW,222,1.0,1.0,97,0.00,,,0.00,Wunderground v.1.15,2013-07-23 10:51:00,
2013-07-23 06:53:00,69.6,68.7,29.72,SW,223,1.0,1.0,97,0.00,,,0.00,Wunderground v.1.15,2013-07-23 10:53:00,
2013-07-23 06:55:00,69.9,69.0,29.72,WSW,252,1.0,1.0,97,0.00,,,0.00,Wunderground v.1.15,2013-07-23 10:55:00,
2013-07-23 06:57:00,70.0,69.1,29.72,WSW,252,1.0,2.0,97,0.00,,,0.00,Wunderground v.1.15,2013-07-23 10:57:00,
2013-07-23 06:59:00,70.2,69.3,29.72,WSW,243,1.0,2.0,97,0.00,,,0.00,Wunderground v.1.15,2013-07-23 10:59:00,
2013-07-23 07:05:00,71.2,70.0,29.72,South,169,1.0,2.0,96,0.00,,,0.00,Wunderground v.1.15,2013-07-23 11:05:00,
2013-07-23 07:07:00,71.5,70.3,29.72,SW,226,1.0,2.0,96,0.00,,,0.00,Wunderground v.1.15,2013-07-23 11:07:00,
2013-07-23 07:09:00,71.7,70.5,29.72,SW,225,1.0,2.0,96,0.00,,,0.00,Wunderground v.1.15,2013-07-23 11:09:00,
2013-07-23 07:11:00,71.8,70.6,29.72,SSW,212,1.0,1.0,96,0.00,,,0.00,Wunderground v.1.15,2013-07-23 11:11:00,
2013-07-23 07:13:00,71.9,70.7,29.72,SSW,195,1.0,1.0,96,0.00,,,0.00,Wunderground v.1.15,2013-07-23 11:13:00,
2013-07-23 07:16:00,72.0,70.5,29.72,SE,145,1.0,1.0,95,0.00,,,0.00,Wunderground v.1.15,2013-07-23 11:16:00,
2013-07-23 07:18:00,72.2,70.7,29.72,SE,145,1.0,1.0,95,0.00,,,0.00,Wunderground v.1.15,2013-07-23 11:18:00,
2013-07-23 07:20:00,72.6,71.1,29.72,SSE,148,1.0,1.0,95,0.00,,,0.00,Wunderground v.1.15,2013-07-23 11:20:00,
2013-07-23 07:24:00,72.9,71.1,29.72,SW,219,0.0,1.0,94,0.00,,,0.00,Wunderground v.1.15,2013-07-23 11:24:00,
2013-07-23 07:26:00,73.1,71.0,29.72,South,178,1.0,2.0,93,0.00,,,0.00,Wunderground v.1.15,2013-07-23 11:26:00,
2013-07-23 07:28:00,73.1,70.6,29.72,South,184,1.0,2.0,92,0.00,,,0.00,Wunderground v.1.15,2013-07-23 11:28:00,
2013-07-23 07:32:00,73.6,71.4,29.73,SE,142,1.0,1.0,93,0.00,,,0.00,Wunderground v.1.15,2013-07-23 11:32:00,
2013-07-23 07:34:00,73.9,71.7,29.73,SE,131,1.0,1.0,93,0.00,,,0.00,Wunderground v.1.15,2013-07-23 11:34:00,
2013-07-23 07:36:00,74.2,71.7,29.72,SE,139,1.0,1.0,92,0.00,,,0.00,Wunderground v.1.15,2013-07-23 11:36:00,
2013-07-23 07:37:00,74.3,71.8,29.72,South,191,1.0,1.0,92,0.00,,,0.00,Wunderground v.1.15,2013-07-23 11:37:00,
2013-07-23 07:41:00,74.4,71.3,29.72,SSW,207,1.0,1.0,90,0.00,,,0.00,Wunderground v.1.15,2013-07-23 11:41:00,
2013-07-23 07:43:00,74.4,71.3,29.73,SSE,150,1.0,1.0,90,0.00,,,0.00,Wunderground v.1.15,2013-07-23 11:43:00,
2013-07-23 07:47:00,74.5,71.4,29.73,SSE,150,1.0,1.0,90,0.00,,,0.00,Wunderground v.1.15,2013-07-23 11:47:00,
2013-07-23 07:49:00,74.5,71.4,29.73,SE,139,1.0,1.0,90,0.00,,,0.00,Wunderground v.1.15,2013-07-23 11:49:00,
2013-07-23 07:52:00,74.3,70.8,29.73,SSW,203,0.0,1.0,89,0.00,,,0.00,Wunderground v.1.15,2013-07-23 11:52:00,
2013-07-23 07:55:00,74.1,70.6,29.73,SE,145,0.0,1.0,89,0.00,,,0.00,Wunderground v.1.15,2013-07-23 11:55:00,
2013-07-23 07:57:00,74.0,70.9,29.73,South,169,0.0,1.0,90,0.00,,,0.00,Wunderground v.1.15,2013-07-23 11:57:00,
2013-07-23 08:00:00,74.0,70.9,29.73,South,169,0.0,0.0,90,0.00,,,0.00,Wunderground v.1.15,2013-07-23 12:00:00,
2013-07-23 08:03:00,73.9,70.8,29.73,SW,225,0.0,0.0,90,0.00,,,0.00,Wunderground v.1.15,2013-07-23 12:03:00,
2013-07-23 08:05:00,73.9,71.1,29.73,ESE,110,0.0,1.0,91,0.00,,,0.00,Wunderground v.1.15,2013-07-23 12:05:00,
2013-07-23 08:09:00,73.9,71.1,29.73,SSE,165,0.0,1.0,91,0.00,,,0.00,Wunderground v.1.15,2013-07-23 12:09:00,
2013-07-23 08:11:00,73.7,70.9,29.73,SSW,195,0.0,1.0,91,0.00,,,0.00,Wunderground v.1.15,2013-07-23 12:11:00,
2013-07-23 08:13:00,73.7,70.9,29.73,SW,214,1.0,2.0,91,0.00,,,0.00,Wunderground v.1.15,2013-07-23 12:13:00,
2013-07-23 08:15:00,73.7,70.9,29.73,SSW,212,1.0,2.0,91,0.00,,,0.00,Wunderground v.1.15,2013-07-23 12:15:00,
2013-07-23 08:17:00,73.7,70.9,29.73,SSW,195,1.0,2.0,91,0.00,,,0.00,Wunderground v.1.15,2013-07-23 12:17:00,
2013-07-23 08:19:00,73.7,70.6,29.73,SSW,205,1.0,2.0,90,0.00,,,0.00,Wunderground v.1.15,2013-07-23 12:19:00,
2013-07-23 08:23:00,74.0,71.2,29.73,South,187,1.0,1.0,91,0.00,,,0.00,Wunderground v.1.15,2013-07-23 12:23:00,
2013-07-23 08:26:00,74.2,71.1,29.73,SE,134,1.0,2.0,90,0.00,,,0.00,Wunderground v.1.15,2013-07-23 12:26:00,
2013-07-23 08:28:00,74.6,71.5,29.73,South,190,1.0,3.0,90,0.00,,,0.00,Wunderground v.1.15,2013-07-23 12:28:00,
2013-07-23 08:30:00,74.8,71.3,29.73,SSW,194,1.0,3.0,89,0.00,,,0.00,Wunderground v.1.15,2013-07-23 12:30:00,
2013-07-23 08:32:00,75.0,71.5,29.73,South,177,2.0,3.0,89,0.00,,,0.00,Wunderground v.1.15,2013-07-23 12:32:00,
2013-07-23 08:34:00,75.4,72.3,29.73,SE,130,2.0,3.0,90,0.00,,,0.00,Wunderground v.1.15,2013-07-23 12:34:00,
2013-07-23 08:36:00,75.7,72.2,29.73,ESE,121,2.0,3.0,89,0.00,,,0.00,Wunderground v.1.15,2013-07-23 12:36:00,
2013-07-23 08:40:00,76.1,71.9,29.73,SE,136,2.0,2.0,87,0.00,,,0.00,Wunderground v.1.15,2013-07-23 12:40:00,
2013-07-23 08:41:00,76.2,72.0,29.73,East,98,2.0,3.0,87,0.00,,,0.00,Wunderground v.1.15,2013-07-23 12:41:00,
2013-07-23 08:43:00,76.2,71.7,29.73,East,101,2.0,4.0,86,0.00,,,0.00,Wunderground v.1.15,2013-07-23 12:43:00,
2013-07-23 08:45:00,76.2,71.7,29.72,East,94,2.0,4.0,86,0.00,,,0.00,Wunderground v.1.15,2013-07-23 12:45:00,
2013-07-23 08:47:00,76.2,72.4,29.72,SE,132,2.0,4.0,88,0.00,,,0.00,Wunderground v.1.15,2013-07-23 12:47:00,
2013-07-23 08:49:00,76.4,72.6,29.72,ESE,108,2.0,2.0,88,0.00,,,0.00,Wunderground v.1.15,2013-07-23 12:49:00,
2013-07-23 08:51:00,76.5,72.7,29.72,SE,133,3.0,3.0,88,0.00,,,0.00,Wunderground v.1.15,2013-07-23 12:51:00,
2013-07-23 08:53:00,76.7,72.2,29.72,East,100,2.0,4.0,86,0.00,,,0.00,Wunderground v.1.15,2013-07-23 12:53:00,
2013-07-23 08:57:00,76.9,72.4,29.72,ESE,113,2.0,4.0,86,0.00,,,0.00,Wunderground v.1.15,2013-07-23 12:57:00,
2013-07-23 08:58:00,77.0,72.8,29.72,SE,138,2.0,4.0,87,0.00,,,0.00,Wunderground v.1.15,2013-07-23 12:58:00,
2013-07-23 08:59:00,77.2,73.0,29.72,SSW,200,2.0,4.0,87,0.00,,,0.00,Wunderground v.1.15,2013-07-23 12:59:00,
2013-07-23 09:03:00,77.7,72.8,29.72,ESE,103,2.0,4.0,85,0.00,,,0.00,Wunderground v.1.15,2013-07-23 13:03:00,
2013-07-23 09:05:00,77.8,72.9,29.72,SSW,192,2.0,4.0,85,0.00,,,0.00,Wunderground v.1.15,2013-07-23 13:05:00,
2013-07-23 09:06:00,78.0,73.5,29.72,SSE,148,2.0,4.0,86,0.00,,,0.00,Wunderground v.1.15,2013-07-23 13:06:00,
2013-07-23 09:10:00,78.3,72.7,29.72,NE,55,2.0,2.0,83,0.00,,,0.00,Wunderground v.1.15,2013-07-23 13:10:00,
2013-07-23 09:12:00,78.5,73.3,29.72,East,98,2.0,2.0,84,0.00,,,0.00,Wunderground v.1.15,2013-07-23 13:12:00,
2013-07-23 09:14:00,78.5,71.4,29.72,ENE,74,2.0,3.0,79,0.00,,,0.00,Wunderground v.1.15,2013-07-23 13:14:00,
2013-07-23 09:18:00,78.6,72.6,29.72,SSE,150,2.0,3.0,82,0.00,,,0.00,Wunderground v.1.15,2013-07-23 13:18:00,
2013-07-23 09:19:00,78.6,72.3,29.72,ESE,108,2.0,2.0,81,0.00,,,0.00,Wunderground v.1.15,2013-07-23 13:19:00,
2013-07-23 09:20:00,78.7,72.4,29.72,SE,130,2.0,2.0,81,0.00,,,0.00,Wunderground v.1.15,2013-07-23 13:20:00,
2013-07-23 09:23:00,78.8,71.4,29.72,SE,140,2.0,2.0,78,0.00,,,0.00,Wunderground v.1.15,2013-07-23 13:23:00,
2013-07-23 09:25:00,78.9,71.8,29.72,SSW,200,2.0,2.0,79,0.00,,,0.00,Wunderground v.1.15,2013-07-23 13:25:00,
2013-07-23 09:26:00,79.0,71.6,29.72,SE,134,2.0,2.0,78,0.00,,,0.00,Wunderground v.1.15,2013-07-23 13:26:00,
2013-07-23 09:30:00,79.3,71.8,29.72,ESE,110,2.0,2.0,78,0.00,,,0.00,Wunderground v.1.15,2013-07-23 13:30:00,
2013-07-23 09:32:00,79.4,72.3,29.72,SW,231,2.0,2.0,79,0.00,,,0.00,Wunderground v.1.15,2013-07-23 13:32:00,
2013-07-23 09:33:00,79.4,72.3,29.72,SW,226,2.0,3.0,79,0.00,,,0.00,Wunderground v.1.15,2013-07-23 13:33:00,
2013-07-23 09:37:00,79.2,71.0,29.72,SW,228,2.0,3.0,76,0.00,,,0.00,Wunderground v.1.15,2013-07-23 13:37:00,
2013-07-23 09:39:00,79.2,71.4,29.72,West,269,2.0,3.0,77,0.00,,,0.00,Wunderground v.1.15,2013-07-23 13:39:00,
2013-07-23 09:41:00,79.0,71.2,29.72,SE,131,2.0,2.0,77,0.00,,,0.00,Wunderground v.1.15,2013-07-23 13:41:00,
2013-07-23 09:43:00,78.9,71.1,29.72,SE,136,2.0,2.0,77,0.00,,,0.00,Wunderground v.1.15,2013-07-23 13:43:00,
2013-07-23 09:45:00,78.6,70.8,29.72,SSW,209,2.0,3.0,77,0.00,,,0.00,Wunderground v.1.15,2013-07-23 13:45:00,
2013-07-23 09:47:00,78.4,70.6,29.72,SSE,160,2.0,3.0,77,0.00,,,0.00,Wunderground v.1.15,2013-07-23 13:47:00,
2013-07-23 09:49:00,78.2,70.4,29.72,SSW,207,2.0,2.0,77,0.00,,,0.00,Wunderground v.1.15,2013-07-23 13:49:00,
2013-07-23 09:53:00,78.1,71.1,29.72,SSW,207,2.0,2.0,79,0.00,,,0.00,Wunderground v.1.15,2013-07-23 13:53:00,
2013-07-23 09:56:00,78.0,71.0,29.72,SE,131,1.0,2.0,79,0.00,,,0.00,Wunderground v.1.15,2013-07-23 13:56:00,
2013-07-23 09:57:00,77.9,70.9,29.72,SE,131,1.0,2.0,79,0.00,,,0.00,Wunderground v.1.15,2013-07-23 13:57:00,
2013-07-23 10:00:00,77.9,70.9,29.72,SE,131,0.0,0.0,79,0.00,,,0.00,Wunderground v.1.15,2013-07-23 14:00:00,
2013-07-23 10:02:00,77.9,70.9,29.72,WSW,253,0.0,1.0,79,0.00,,,0.00,Wunderground v.1.15,2013-07-23 14:02:00,
2013-07-23 10:06:00,77.8,70.8,29.72,WSW,253,0.0,1.0,79,0.00,,,0.00,Wunderground v.1.15,2013-07-23 14:06:00,
2013-07-23 10:08:00,77.9,70.9,29.72,WSW,253,0.0,1.0,79,0.00,,,0.00,Wunderground v.1.15,2013-07-23 14:08:00,
2013-07-23 10:12:00,78.2,71.2,29.72,WSW,253,0.0,0.0,79,0.00,,,0.00,Wunderground v.1.15,2013-07-23 14:12:00,
2013-07-23 10:14:00,78.5,71.4,29.72,SE,142,0.0,1.0,79,0.00,,,0.00,Wunderground v.1.15,2013-07-23 14:14:00,
2013-07-23 10:20:00,79.3,71.1,29.72,West,276,1.0,1.0,76,0.00,,,0.00,Wunderground v.1.15,2013-07-23 14:20:00,
2013-07-23 10:21:00,79.4,70.8,29.72,SW,231,1.0,2.0,75,0.00,,,0.00,Wunderground v.1.15,2013-07-23 14:21:00,
2013-07-23 10:27:00,79.6,70.6,29.72,West,259,3.0,7.0,74,0.00,,,0.00,Wunderground v.1.15,2013-07-23 14:27:00,
2013-07-23 10:29:00,79.6,71.0,29.72,West,263,3.0,7.0,75,0.00,,,0.00,Wunderground v.1.15,2013-07-23 14:29:00,
2013-07-23 10:31:00,79.7,69.5,29.72,SW,228,4.0,6.0,71,0.00,,,0.00,Wunderground v.1.15,2013-07-23 14:31:00,
2013-07-23 10:33:00,79.8,69.6,29.71,West,269,4.0,6.0,71,0.00,,,0.00,Wunderground v.1.15,2013-07-23 14:33:00,
2013-07-23 10:34:00,79.8,69.6,29.71,West,269,4.0,6.0,71,0.00,,,0.01,Wunderground v.1.15,2013-07-23 14:34:00,
2013-07-23 10:36:00,79.9,70.1,29.71,WSW,246,4.0,6.0,72,0.00,,,0.01,Wunderground v.1.15,2013-07-23 14:36:00,
2013-07-23 10:38:00,79.7,68.2,29.71,West,271,4.0,6.0,68,0.00,,,0.01,Wunderground v.1.15,2013-07-23 14:38:00,
2013-07-23 10:41:00,79.5,68.4,29.71,West,268,4.0,6.0,69,0.00,,,0.01,Wunderground v.1.15,2013-07-23 14:41:00,
2013-07-23 10:43:00,79.5,68.4,29.71,SW,226,5.0,6.0,69,0.00,,,0.01,Wunderground v.1.15,2013-07-23 14:43:00,
2013-07-23 10:45:00,79.7,68.6,29.71,WNW,287,4.0,6.0,69,0.00,,,0.01,Wunderground v.1.15,2013-07-23 14:45:00,
2013-07-23 10:49:00,80.1,68.6,29.71,WSW,250,3.0,6.0,68,0.00,,,0.01,Wunderground v.1.15,2013-07-23 14:49:00,
2013-07-23 10:51:00,80.3,69.2,29.71,WSW,248,3.0,4.0,69,0.00,,,0.01,Wunderground v.1.15,2013-07-23 14:51:00,
2013-07-23 10:53:00,80.2,67.8,29.71,West,260,3.0,6.0,66,0.00,,,0.01,Wunderground v.1.15,2013-07-23 14:53:00,
2013-07-23 10:55:00,80.1,68.2,29.71,West,269,4.0,8.0,67,0.00,,,0.01,Wunderground v.1.15,2013-07-23 14:55:00,
2013-07-23 10:58:00,80.3,68.8,29.71,West,266,5.0,8.0,68,0.00,,,0.01,Wunderground v.1.15,2013-07-23 14:58:00,
2013-07-23 10:59:00,80.3,67.5,29.71,West,269,5.0,5.0,65,0.00,,,0.01,Wunderground v.1.15,2013-07-23 14:59:00,
2013-07-23 11:02:00,80.4,67.6,29.71,NW,317,4.0,5.0,65,0.00,,,0.01,Wunderground v.1.15,2013-07-23 15:02:00,
2013-07-23 11:04:00,80.7,68.3,29.71,NNW,343,4.0,5.0,66,0.00,,,0.01,Wunderground v.1.15,2013-07-23 15:04:00,
2013-07-23 11:08:00,80.9,68.5,29.71,WSW,256,3.0,7.0,66,0.00,,,0.01,Wunderground v.1.15,2013-07-23 15:08:00,
2013-07-23 11:10:00,80.7,67.8,29.72,WSW,248,3.0,3.0,65,0.00,,,0.01,Wunderground v.1.15,2013-07-23 15:10:00,
2013-07-23 11:12:00,80.6,68.2,29.72,WSW,250,3.0,3.0,66,0.00,,,0.01,Wunderground v.1.15,2013-07-23 15:12:00,
2013-07-23 11:16:00,80.6,69.1,29.72,WSW,250,3.0,5.0,68,0.00,,,0.01,Wunderground v.1.15,2013-07-23 15:16:00,
2013-07-23 11:18:00,80.5,68.1,29.72,West,259,3.0,5.0,66,0.00,,,0.01,Wunderground v.1.15,2013-07-23 15:18:00,
2013-07-23 11:22:00,80.3,68.3,29.72,West,281,4.0,7.0,67,0.00,,,0.01,Wunderground v.1.15,2013-07-23 15:22:00,
2013-07-23 11:24:00,80.3,68.3,29.72,West,281,4.0,7.0,67,0.00,,,0.01,Wunderground v.1.15,2013-07-23 15:24:00,
2013-07-23 11:26:00,80.4,68.4,29.72,WNW,293,4.0,7.0,67,0.00,,,0.01,Wunderground v.1.15,2013-07-23 15:26:00,
2013-07-23 11:28:00,80.4,68.9,29.72,West,263,4.0,7.0,68,0.00,,,0.01,Wunderground v.1.15,2013-07-23 15:28:00,
2013-07-23 11:30:00,80.3,68.3,29.72,WSW,248,4.0,4.0,67,0.00,,,0.01,Wunderground v.1.15,2013-07-23 15:30:00,
2013-07-23 11:32:00,80.3,68.8,29.72,West,262,4.0,7.0,68,0.00,,,0.01,Wunderground v.1.15,2013-07-23 15:32:00,
2013-07-23 11:35:00,80.2,68.7,29.72,West,272,5.0,7.0,68,0.00,,,0.01,Wunderground v.1.15,2013-07-23 15:35:00,
2013-07-23 11:36:00,80.3,69.2,29.72,West,276,5.0,7.0,69,0.00,,,0.01,Wunderground v.1.15,2013-07-23 15:36:00,
2013-07-23 11:39:00,80.5,69.4,29.72,West,281,5.0,7.0,69,0.00,,,0.01,Wunderground v.1.15,2013-07-23 15:39:00,
2013-07-23 11:41:00,80.8,68.4,29.72,West,274,4.0,7.0,66,0.00,,,0.01,Wunderground v.1.15,2013-07-23 15:41:00,
2013-07-23 11:45:00,81.6,68.7,29.72,West,260,5.0,7.0,65,0.00,,,0.01,Wunderground v.1.15,2013-07-23 15:45:00,
2013-07-23 11:47:00,81.7,68.3,29.72,West,280,5.0,7.0,64,0.00,,,0.01,Wunderground v.1.15,2013-07-23 15:47:00,
2013-07-23 11:49:00,81.8,68.4,29.72,West,263,5.0,7.0,64,0.00,,,0.01,Wunderground v.1.15,2013-07-23 15:49:00,
2013-07-23 11:53:00,82.0,68.2,29.72,NW,309,5.0,5.0,63,0.00,,,0.01,Wunderground v.1.15,2013-07-23 15:53:00,
2013-07-23 11:55:00,82.2,68.8,29.72,West,264,4.0,5.0,64,0.00,,,0.01,Wunderground v.1.15,2013-07-23 15:55:00,
2013-07-23 11:57:00,82.3,68.4,29.72,WSW,250,4.0,9.0,63,0.00,,,0.01,Wunderground v.1.15,2013-07-23 15:57:00,
2013-07-23 11:59:00,82.2,67.9,29.72,West,280,4.0,9.0,62,0.00,,,0.01,Wunderground v.1.15,2013-07-23 15:59:00,
2013-07-23 12:02:00,81.9,68.5,29.71,WSW,253,5.0,9.0,64,0.00,,,0.01,Wunderground v.1.15,2013-07-23 16:02:00,
2013-07-23 12:03:00,81.9,68.1,29.71,West,270,5.0,9.0,63,0.00,,,0.01,Wunderground v.1.15,2013-07-23 16:03:00,
2013-07-23 12:07:00,82.2,67.9,29.71,WSW,252,6.0,9.0,62,0.00,,,0.01,Wunderground v.1.15,2013-07-23 16:07:00,
2013-07-23 12:08:00,82.2,68.8,29.71,WSW,257,5.0,9.0,64,0.00,,,0.01,Wunderground v.1.15,2013-07-23 16:08:00,
2013-07-23 12:10:00,82.4,68.5,29.71,West,264,5.0,6.0,63,0.00,,,0.01,Wunderground v.1.15,2013-07-23 16:10:00,
2013-07-23 12:13:00,82.3,68.0,29.71,NNW,335,4.0,7.0,62,0.00,,,0.01,Wunderground v.1.15,2013-07-23 16:13:00,
2013-07-23 12:15:00,82.4,68.1,29.71,WNW,286,4.0,7.0,62,0.00,,,0.01,Wunderground v.1.15,2013-07-23 16:15:00,
2013-07-23 12:17:00,82.6,68.3,29.71,WNW,298,4.0,7.0,62,0.00,,,0.01,Wunderground v.1.15,2013-07-23 16:17:00,
2013-07-23 12:21:00,83.0,69.6,29.71,NW,311,4.0,4.0,64,0.00,,,0.01,Wunderground v.1.15,2013-07-23 16:21:00,
2013-07-23 12:22:00,82.9,68.5,29.71,NW,319,3.0,6.0,62,0.00,,,0.01,Wunderground v.1.15,2013-07-23 16:22:00,
2013-07-23 12:25:00,82.9,69.0,29.71,NNW,340,4.0,6.0,63,0.00,,,0.01,Wunderground v.1.15,2013-07-23 16:25:00,
2013-07-23 12:26:00,83.0,69.1,29.71,West,260,4.0,6.0,63,0.00,,,0.01,Wunderground v.1.15,2013-07-23 16:26:00,
2013-07-23 12:28:00,83.0,69.1,29.72,West,271,4.0,7.0,63,0.00,,,0.01,Wunderground v.1.15,2013-07-23 16:28:00,
2013-07-23 12:29:00,82.9,67.1,29.72,West,277,4.0,8.0,59,0.00,,,0.01,Wunderground v.1.15,2013-07-23 16:29:00,
2013-07-23 12:30:00,82.9,67.6,29.71,WSW,253,4.0,6.0,60,0.00,,,0.01,Wunderground v.1.15,2013-07-23 16:30:00,
2013-07-23 12:32:00,82.9,68.5,29.72,West,259,5.0,6.0,62,0.00,,,0.01,Wunderground v.1.15,2013-07-23 16:32:00,
2013-07-23 12:36:00,83.2,67.4,29.72,NW,310,5.0,6.0,59,0.00,,,0.01,Wunderground v.1.15,2013-07-23 16:36:00,
2013-07-23 12:38:00,83.4,67.6,29.72,NW,315,4.0,7.0,59,0.00,,,0.01,Wunderground v.1.15,2013-07-23 16:38:00,
2013-07-23 12:40:00,83.3,68.0,29.72,West,264,4.0,4.0,60,0.00,,,0.01,Wunderground v.1.15,2013-07-23 16:40:00,
2013-07-23 12:42:00,83.0,67.7,29.71,NNW,333,4.0,4.0,60,0.00,,,0.01,Wunderground v.1.15,2013-07-23 16:42:00,
2013-07-23 12:48:00,82.6,67.3,29.72,WNW,298,3.0,5.0,60,0.00,,,0.01,Wunderground v.1.15,2013-07-23 16:48:00,
2013-07-23 12:50:00,82.9,68.1,29.72,NW,319,3.0,3.0,61,0.00,,,0.01,Wunderground v.1.15,2013-07-23 16:50:00,
2013-07-23 12:54:00,83.4,68.1,29.72,WSW,246,2.0,7.0,60,0.00,,,0.01,Wunderground v.1.15,2013-07-23 16:54:00,
2013-07-23 12:56:00,83.4,67.6,29.71,West,276,3.0,7.0,59,0.00,,,0.01,Wunderground v.1.15,2013-07-23 16:56:00,
2013-07-23 12:58:00,83.3,68.4,29.72,West,260,3.0,7.0,61,0.00,,,0.01,Wunderground v.1.15,2013-07-23 16:58:00,
2013-07-23 12:59:00,83.3,68.0,29.72,WSW,243,3.0,7.0,60,0.00,,,0.01,Wunderground v.1.15,2013-07-23 16:59:00,
2013-07-23 13:00:00,83.2,67.9,29.72,WNW,288,3.0,5.0,60,0.00,,,0.01,Wunderground v.1.15,2013-07-23 17:00:00,
2013-07-23 13:03:00,83.1,67.8,29.72,West,281,4.0,6.0,60,0.00,,,0.01,Wunderground v.1.15,2013-07-23 17:03:00,
2013-07-23 13:05:00,83.2,68.3,29.71,West,276,4.0,7.0,61,0.00,,,0.01,Wunderground v.1.15,2013-07-23 17:05:00,
2013-07-23 13:07:00,83.4,68.1,29.71,WSW,255,4.0,7.0,60,0.00,,,0.01,Wunderground v.1.15,2013-07-23 17:07:00,
2013-07-23 13:09:00,83.5,68.2,29.71,NW,311,4.0,7.0,60,0.00,,,0.01,Wunderground v.1.15,2013-07-23 17:09:00,
2013-07-23 13:13:00,83.9,67.5,29.71,West,262,3.0,7.0,58,0.00,,,0.01,Wunderground v.1.15,2013-07-23 17:13:00,
2013-07-23 13:15:00,84.1,67.7,29.71,WSW,253,3.0,7.0,58,0.00,,,0.01,Wunderground v.1.15,2013-07-23 17:15:00,
2013-07-23 13:18:00,84.1,67.7,29.71,West,267,4.0,7.0,58,0.00,,,0.01,Wunderground v.1.15,2013-07-23 17:18:00,
2013-07-23 13:20:00,84.3,67.9,29.71,NW,326,4.0,4.0,58,0.00,,,0.01,Wunderground v.1.15,2013-07-23 17:20:00,
2013-07-23 13:22:00,84.5,67.6,29.71,West,271,4.0,4.0,57,0.00,,,0.01,Wunderground v.1.15,2013-07-23 17:22:00,
2013-07-23 13:24:00,84.6,67.7,29.71,West,281,4.0,7.0,57,0.00,,,0.01,Wunderground v.1.15,2013-07-23 17:24:00,
2013-07-23 13:26:00,84.6,67.7,29.71,West,264,4.0,7.0,57,0.00,,,0.01,Wunderground v.1.15,2013-07-23 17:26:00,
2013-07-23 13:28:00,84.8,67.4,29.71,NW,311,4.0,7.0,56,0.00,,,0.01,Wunderground v.1.15,2013-07-23 17:28:00,
2013-07-23 13:34:00,84.9,69.0,29.71,West,270,4.0,6.0,59,0.00,,,0.01,Wunderground v.1.15,2013-07-23 17:34:00,
2013-07-23 13:36:00,84.6,66.7,29.71,WSW,248,4.0,9.0,55,0.00,,,0.01,Wunderground v.1.15,2013-07-23 17:36:00,
2013-07-23 13:38:00,84.3,66.9,29.71,WNW,290,5.0,9.0,56,0.00,,,0.01,Wunderground v.1.15,2013-07-23 17:38:00,
2013-07-23 13:41:00,84.4,67.5,29.71,North,353,4.0,5.0,57,0.00,,,0.01,Wunderground v.1.15,2013-07-23 17:41:00,
2013-07-23 13:44:00,84.4,67.0,29.71,WNW,287,4.0,5.0,56,0.00,,,0.01,Wunderground v.1.15,2013-07-23 17:44:00,
2013-07-23 13:46:00,84.5,68.1,29.71,WSW,252,3.0,5.0,58,0.00,,,0.01,Wunderground v.1.15,2013-07-23 17:46:00,
2013-07-23 13:48:00,84.7,68.3,29.71,NNE,29,3.0,5.0,58,0.00,,,0.01,Wunderground v.1.15,2013-07-23 17:48:00,
2013-07-23 13:51:00,84.8,67.9,29.70,North,351,3.0,6.0,57,0.00,,,0.01,Wunderground v.1.15,2013-07-23 17:51:00,
2013-07-23 13:53:00,84.8,67.9,29.71,NW,321,2.0,6.0,57,0.00,,,0.01,Wunderground v.1.15,2013-07-23 17:53:00,
2013-07-23 13:55:00,84.8,67.9,29.70,NW,314,2.0,6.0,57,0.00,,,0.01,Wunderground v.1.15,2013-07-23 17:55:00,
2013-07-23 13:59:00,84.3,67.4,29.71,NW,319,3.0,6.0,57,0.00,,,0.01,Wunderground v.1.15,2013-07-23 17:59:00,
2013-07-23 14:03:00,84.3,67.9,29.70,NW,321,2.0,5.0,58,0.00,,,0.01,Wunderground v.1.15,2013-07-23 18:03:00,
2013-07-23 14:05:00,84.4,67.5,29.70,NW,307,2.0,5.0,57,0.00,,,0.01,Wunderground v.1.15,2013-07-23 18:05:00,
2013-07-23 14:07:00,84.3,67.4,29.70,ENE,65,3.0,5.0,57,0.00,,,0.01,Wunderground v.1.15,2013-07-23 18:07:00,
2013-07-23 14:09:00,84.4,67.5,29.70,North,355,3.0,3.0,57,0.00,,,0.01,Wunderground v.1.15,2013-07-23 18:09:00,
2013-07-23 14:14:00,84.6,67.7,29.71,WNW,300,3.0,4.0,57,0.00,,,0.01,Wunderground v.1.15,2013-07-23 18:14:00,
2013-07-23 14:15:00,84.5,67.6,29.71,NE,34,3.0,4.0,57,0.00,,,0.01,Wunderground v.1.15,2013-07-23 18:15:00,
2013-07-23 14:16:00,84.4,67.0,29.71,North,356,2.0,4.0,56,0.00,,,0.01,Wunderground v.1.15,2013-07-23 18:16:00,
2013-07-23 14:18:00,84.3,67.4,29.71,NNW,339,2.0,5.0,57,0.00,,,0.01,Wunderground v.1.15,2013-07-23 18:18:00,
2013-07-23 14:22:00,84.0,67.6,29.71,WNW,300,3.0,5.0,58,0.00,,,0.01,Wunderground v.1.15,2013-07-23 18:22:00,
2013-07-23 14:25:00,84.1,67.2,29.71,WNW,303,3.0,5.0,57,0.00,,,0.01,Wunderground v.1.15,2013-07-23 18:25:00,
2013-07-23 14:27:00,84.4,68.0,29.71,NW,305,3.0,5.0,58,0.00,,,0.01,Wunderground v.1.15,2013-07-23 18:27:00,
2013-07-23 14:30:00,84.7,68.3,29.71,West,274,2.0,2.0,58,0.00,,,0.01,Wunderground v.1.15,2013-07-23 18:30:00,
2013-07-23 14:32:00,84.7,67.3,29.71,West,260,2.0,3.0,56,0.00,,,0.01,Wunderground v.1.15,2013-07-23 18:32:00,
2013-07-23 14:34:00,84.6,67.2,29.70,West,269,2.0,4.0,56,0.00,,,0.01,Wunderground v.1.15,2013-07-23 18:34:00,
2013-07-23 14:38:00,84.6,67.2,29.70,North,1,2.0,4.0,56,0.00,,,0.01,Wunderground v.1.15,2013-07-23 18:38:00,
2013-07-23 14:40:00,84.6,67.7,29.70,NNE,14,2.0,2.0,57,0.00,,,0.01,Wunderground v.1.15,2013-07-23 18:40:00,
2013-07-23 14:42:00,84.8,68.9,29.70,North,358,2.0,3.0,59,0.00,,,0.01,Wunderground v.1.15,2013-07-23 18:42:00,
2013-07-23 14:46:00,84.9,67.5,29.70,WSW,253,2.0,3.0,56,0.00,,,0.01,Wunderground v.1.15,2013-07-23 18:46:00,
2013-07-23 14:48:00,85.2,67.7,29.70,WNW,289,2.0,3.0,56,0.00,,,0.01,Wunderground v.1.15,2013-07-23 18:48:00,
2013-07-23 14:54:00,86.1,67.5,29.69,WNW,287,3.0,7.0,54,0.00,,,0.01,Wunderground v.1.15,2013-07-23 18:54:00,
2013-07-23 14:56:00,86.2,67.1,29.69,WNW,285,3.0,7.0,53,0.00,,,0.01,Wunderground v.1.15,2013-07-23 18:56:00,
2013-07-23 14:59:00,86.3,66.6,29.69,NW,308,4.0,7.0,52,0.00,,,0.01,Wunderground v.1.15,2013-07-23 18:59:00,
2013-07-23 15:01:00,86.6,68.0,29.69,West,267,4.0,5.0,54,0.00,,,0.01,Wunderground v.1.15,2013-07-23 19:01:00,
2013-07-23 15:03:00,86.7,67.5,29.69,West,274,4.0,5.0,53,0.00,,,0.01,Wunderground v.1.15,2013-07-23 19:03:00,
2013-07-23 15:04:00,86.8,67.1,29.69,West,259,4.0,6.0,52,0.00,,,0.01,Wunderground v.1.15,2013-07-23 19:04:00,
2013-07-23 15:06:00,86.9,67.2,29.69,West,267,4.0,6.0,52,0.00,,,0.01,Wunderground v.1.15,2013-07-23 19:06:00,
2013-07-23 15:07:00,86.9,67.7,29.69,WNW,297,4.0,6.0,53,0.00,,,0.01,Wunderground v.1.15,2013-07-23 19:07:00,
2013-07-23 15:08:00,86.9,68.3,29.69,West,266,4.0,6.0,54,0.00,,,0.01,Wunderground v.1.15,2013-07-23 19:08:00,
2013-07-23 15:11:00,86.9,68.3,29.69,West,262,4.0,9.0,54,0.00,,,0.01,Wunderground v.1.15,2013-07-23 19:11:00,
2013-07-23 15:13:00,86.6,66.9,29.69,West,259,5.0,9.0,52,0.00,,,0.01,Wunderground v.1.15,2013-07-23 19:13:00,
2013-07-23 15:15:00,86.4,66.7,29.69,West,259,5.0,9.0,52,0.00,,,0.01,Wunderground v.1.15,2013-07-23 19:15:00,
2013-07-23 15:21:00,86.3,67.7,29.69,WSW,243,5.0,6.0,54,0.00,,,0.01,Wunderground v.1.15,2013-07-23 19:21:00,
2013-07-23 15:24:00,86.3,67.2,29.69,West,266,4.0,7.0,53,0.00,,,0.01,Wunderground v.1.15,2013-07-23 19:24:00,
2013-07-23 15:26:00,86.3,67.7,29.69,West,259,5.0,7.0,54,0.00,,,0.01,Wunderground v.1.15,2013-07-23 19:26:00,
2013-07-23 15:28:00,86.1,67.5,29.69,West,272,5.0,7.0,54,0.00,,,0.01,Wunderground v.1.15,2013-07-23 19:28:00,
2013-07-23 15:30:00,86.1,67.5,29.68,WSW,253,6.0,6.0,54,0.00,,,0.01,Wunderground v.1.15,2013-07-23 19:30:00,
2013-07-23 15:34:00,86.2,67.6,29.68,West,262,6.0,7.0,54,0.00,,,0.01,Wunderground v.1.15,2013-07-23 19:34:00,
2013-07-23 15:36:00,86.2,68.7,29.68,West,259,6.0,7.0,56,0.00,,,0.01,Wunderground v.1.15,2013-07-23 19:36:00,
2013-07-23 15:38:00,86.2,68.7,29.68,West,269,6.0,7.0,56,0.00,,,0.01,Wunderground v.1.15,2013-07-23 19:38:00,
2013-07-23 15:40:00,86.2,68.7,29.68,West,259,5.0,5.0,56,0.00,,,0.01,Wunderground v.1.15,2013-07-23 19:40:00,
2013-07-23 15:45:00,86.4,68.8,29.68,SW,219,5.0,6.0,56,0.00,,,0.01,Wunderground v.1.15,2013-07-23 19:45:00,
2013-07-23 15:47:00,86.3,68.2,29.68,WSW,250,5.0,6.0,55,0.00,,,0.01,Wunderground v.1.15,2013-07-23 19:47:00,
2013-07-23 15:51:00,86.2,67.6,29.68,SSW,200,4.0,7.0,54,0.00,,,0.01,Wunderground v.1.15,2013-07-23 19:51:00,
2013-07-23 15:53:00,86.3,67.7,29.68,WSW,255,4.0,7.0,54,0.00,,,0.01,Wunderground v.1.15,2013-07-23 19:53:00,
2013-07-23 15:55:00,86.5,68.4,29.68,West,271,4.0,7.0,55,0.00,,,0.01,Wunderground v.1.15,2013-07-23 19:55:00,
2013-07-23 15:56:00,86.5,68.9,29.68,WSW,250,4.0,7.0,56,0.00,,,0.01,Wunderground v.1.15,2013-07-23 19:56:00,
2013-07-23 15:59:00,86.5,68.9,29.68,NW,317,4.0,7.0,56,0.00,,,0.01,Wunderground v.1.15,2013-07-23 19:59:00,
2013-07-23 16:02:00,86.5,67.3,29.68,West,270,4.0,6.0,53,0.00,,,0.01,Wunderground v.1.15,2013-07-23 20:02:00,
2013-07-23 16:04:00,86.4,67.2,29.68,West,278,4.0,6.0,53,0.00,,,0.01,Wunderground v.1.15,2013-07-23 20:04:00,
2013-07-23 16:06:00,86.3,67.7,29.68,WSW,252,4.0,6.0,54,0.00,,,0.01,Wunderground v.1.15,2013-07-23 20:06:00,
2013-07-23 16:10:00,86.5,69.5,29.68,WNW,283,4.0,4.0,57,0.00,,,0.01,Wunderground v.1.15,2013-07-23 20:10:00,
2013-07-23 16:12:00,86.6,69.0,29.68,West,273,3.0,4.0,56,0.00,,,0.01,Wunderground v.1.15,2013-07-23 20:12:00,
2013-07-23 16:14:00,86.6,69.0,29.68,West,274,4.0,5.0,56,0.00,,,0.01,Wunderground v.1.15,2013-07-23 20:14:00,
2013-07-23 16:18:00,86.7,67.5,29.67,SW,215,4.0,7.0,53,0.00,,,0.01,Wunderground v.1.15,2013-07-23 20:18:00,
2013-07-23 16:19:00,86.6,69.0,29.67,West,266,4.0,4.0,56,0.00,,,0.01,Wunderground v.1.15,2013-07-23 20:19:00,
2013-07-23 16:21:00,86.6,68.5,29.67,WSW,249,5.0,7.0,55,0.00,,,0.01,Wunderground v.1.15,2013-07-23 20:21:00,
2013-07-23 16:23:00,86.5,69.5,29.67,WSW,250,5.0,7.0,57,0.00,,,0.01,Wunderground v.1.15,2013-07-23 20:23:00,
2013-07-23 16:27:00,86.5,68.4,29.67,WSW,256,5.0,7.0,55,0.00,,,0.01,Wunderground v.1.15,2013-07-23 20:27:00,
2013-07-23 16:30:00,86.9,69.3,29.67,West,272,5.0,5.0,56,0.00,,,0.01,Wunderground v.1.15,2013-07-23 20:30:00,
2013-07-23 16:31:00,86.9,68.3,29.67,WSW,255,5.0,5.0,54,0.00,,,0.01,Wunderground v.1.15,2013-07-23 20:31:00,
2013-07-23 16:34:00,86.7,68.1,29.67,West,259,4.0,5.0,54,0.00,,,0.01,Wunderground v.1.15,2013-07-23 20:34:00,
2013-07-23 16:38:00,86.5,69.5,29.66,West,274,4.0,6.0,57,0.00,,,0.01,Wunderground v.1.15,2013-07-23 20:38:00,
2013-07-23 16:40:00,86.9,68.8,29.66,WSW,249,4.0,4.0,55,0.00,,,0.01,Wunderground v.1.15,2013-07-23 20:40:00,
2013-07-23 16:44:00,87.3,68.1,29.66,West,272,3.0,7.0,53,0.00,,,0.01,Wunderground v.1.15,2013-07-23 20:44:00,
2013-07-23 16:51:00,86.9,67.7,29.66,WSW,255,4.0,7.0,53,0.00,,,0.01,Wunderground v.1.15,2013-07-23 20:51:00,
2013-07-23 16:53:00,87.0,68.3,29.66,WSW,253,4.0,7.0,54,0.00,,,0.01,Wunderground v.1.15,2013-07-23 20:53:00,
2013-07-23 16:55:00,87.1,67.9,29.66,WSW,243,4.0,7.0,53,0.00,,,0.01,Wunderground v.1.15,2013-07-23 20:55:00,
2013-07-23 16:57:00,87.1,67.9,29.66,WSW,243,4.0,7.0,53,0.00,,,0.01,Wunderground v.1.15,2013-07-23 20:57:00,
2013-07-23 16:59:00,87.1,69.0,29.66,West,270,4.0,4.0,55,0.00,,,0.01,Wunderground v.1.15,2013-07-23 20:59:00,
2013-07-23 17:01:00,87.3,69.2,29.65,West,273,3.0,4.0,55,0.00,,,0.01,Wunderground v.1.15,2013-07-23 21:01:00,
2013-07-23 17:07:00,87.6,68.4,29.65,WNW,283,3.0,4.0,53,0.00,,,0.01,Wunderground v.1.15,2013-07-23 21:07:00,
2013-07-23 17:09:00,87.5,69.3,29.65,WSW,256,3.0,5.0,55,0.00,,,0.01,Wunderground v.1.15,2013-07-23 21:09:00,
2013-07-23 17:11:00,87.6,69.4,29.65,West,279,3.0,4.0,55,0.00,,,0.01,Wunderground v.1.15,2013-07-23 21:11:00,
2013-07-23 17:16:00,87.9,68.6,29.65,WNW,296,3.0,4.0,53,0.00,,,0.01,Wunderground v.1.15,2013-07-23 21:16:00,
2013-07-23 17:20:00,88.4,69.6,29.65,West,279,2.0,3.0,54,0.00,,,0.01,Wunderground v.1.15,2013-07-23 21:20:00,
2013-07-23 17:24:00,88.2,68.9,29.65,NE,41,2.0,5.0,53,0.00,,,0.01,Wunderground v.1.15,2013-07-23 21:24:00,
2013-07-23 17:30:00,88.2,68.9,29.65,WSW,250,2.0,4.0,53,0.00,,,0.01,Wunderground v.1.15,2013-07-23 21:30:00,
2013-07-23 17:31:00,88.2,68.9,29.65,West,264,2.0,4.0,53,0.00,,,0.01,Wunderground v.1.15,2013-07-23 21:31:00,
2013-07-23 17:32:00,88.1,68.8,29.65,West,264,2.0,4.0,53,0.00,,,0.01,Wunderground v.1.15,2013-07-23 21:32:00,
2013-07-23 17:37:00,87.7,69.0,29.65,West,259,3.0,5.0,54,0.00,,,0.01,Wunderground v.1.15,2013-07-23 21:37:00,
2013-07-23 17:39:00,87.6,70.0,29.65,WSW,240,4.0,4.0,56,0.00,,,0.01,Wunderground v.1.15,2013-07-23 21:39:00,
2013-07-23 17:43:00,87.7,69.5,29.64,NW,306,4.0,4.0,55,0.00,,,0.01,Wunderground v.1.15,2013-07-23 21:43:00,
2013-07-23 17:45:00,87.7,68.4,29.64,WNW,290,3.0,4.0,53,0.00,,,0.01,Wunderground v.1.15,2013-07-23 21:45:00,
2013-07-23 17:50:00,87.6,68.4,29.64,West,260,3.0,5.0,53,0.00,,,0.01,Wunderground v.1.15,2013-07-23 21:50:00,
2013-07-23 17:52:00,87.5,68.3,29.64,WNW,283,3.0,5.0,53,0.00,,,0.01,Wunderground v.1.15,2013-07-23 21:52:00,
2013-07-23 17:54:00,87.3,68.1,29.65,WNW,285,4.0,5.0,53,0.00,,,0.01,Wunderground v.1.15,2013-07-23 21:54:00,
2013-07-23 17:56:00,86.9,67.7,29.65,West,277,4.0,5.0,53,0.00,,,0.01,Wunderground v.1.15,2013-07-23 21:56:00,
2013-07-23 18:00:00,86.5,67.9,29.65,West,269,4.0,4.0,54,0.00,,,0.01,Wunderground v.1.15,2013-07-23 22:00:00,
2013-07-23 18:02:00,86.5,68.4,29.65,West,266,4.0,4.0,55,0.00,,,0.01,Wunderground v.1.15,2013-07-23 22:02:00,
2013-07-23 18:03:00,86.5,67.9,29.65,WSW,249,4.0,4.0,54,0.00,,,0.01,Wunderground v.1.15,2013-07-23 22:03:00,
2013-07-23 18:04:00,86.5,68.4,29.64,West,263,4.0,4.0,55,0.00,,,0.01,Wunderground v.1.15,2013-07-23 22:04:00,
2013-07-23 18:08:00,86.8,68.2,29.65,WSW,257,3.0,4.0,54,0.00,,,0.01,Wunderground v.1.15,2013-07-23 22:08:00,
2013-07-23 18:09:00,86.8,68.7,29.65,West,264,3.0,4.0,55,0.00,,,0.01,Wunderground v.1.15,2013-07-23 22:09:00,
2013-07-23 18:12:00,86.8,69.7,29.65,West,259,3.0,6.0,57,0.00,,,0.01,Wunderground v.1.15,2013-07-23 22:12:00,
2013-07-23 18:15:00,86.8,69.2,29.65,West,264,4.0,6.0,56,0.00,,,0.01,Wunderground v.1.15,2013-07-23 22:15:00,
2013-07-23 18:19:00,86.6,67.4,29.65,WSW,250,4.0,6.0,53,0.00,,,0.01,Wunderground v.1.15,2013-07-23 22:19:00,
2013-07-23 18:23:00,86.6,68.0,29.65,WSW,243,5.0,6.0,54,0.00,,,0.01,Wunderground v.1.15,2013-07-23 22:23:00,
2013-07-23 18:25:00,86.6,68.0,29.65,West,267,5.0,6.0,54,0.00,,,0.01,Wunderground v.1.15,2013-07-23 22:25:00,
2013-07-23 18:27:00,86.5,68.4,29.65,WNW,288,5.0,6.0,55,0.00,,,0.01,Wunderground v.1.15,2013-07-23 22:27:00,
2013-07-23 18:33:00,86.4,67.2,29.66,West,260,5.0,6.0,53,0.00,,,0.01,Wunderground v.1.15,2013-07-23 22:33:00,
2013-07-23 18:34:00,86.4,67.8,29.65,West,264,5.0,8.0,54,0.00,,,0.01,Wunderground v.1.15,2013-07-23 22:34:00,
2013-07-23 18:37:00,86.3,67.2,29.66,West,280,5.0,8.0,53,0.00,,,0.01,Wunderground v.1.15,2013-07-23 22:37:00,
2013-07-23 18:38:00,86.3,67.7,29.66,West,260,5.0,8.0,54,0.00,,,0.01,Wunderground v.1.15,2013-07-23 22:38:00,
2013-07-23 18:39:00,86.2,67.6,29.66,NW,309,5.0,5.0,54,0.00,,,0.01,Wunderground v.1.15,2013-07-23 22:39:00,
2013-07-23 18:43:00,86.1,68.0,29.66,West,271,5.0,5.0,55,0.00,,,0.01,Wunderground v.1.15,2013-07-23 22:43:00,
2013-07-23 18:44:00,86.2,68.7,29.66,West,278,5.0,5.0,56,0.00,,,0.01,Wunderground v.1.15,2013-07-23 22:44:00,
2013-07-23 18:47:00,86.1,67.5,29.66,WSW,250,4.0,6.0,54,0.00,,,0.01,Wunderground v.1.15,2013-07-23 22:47:00,
2013-07-23 18:51:00,86.0,67.4,29.66,West,271,4.0,4.0,54,0.00,,,0.01,Wunderground v.1.15,2013-07-23 22:51:00,
2013-07-23 18:53:00,86.0,67.4,29.66,West,271,4.0,4.0,54,0.00,,,0.01,Wunderground v.1.15,2013-07-23 22:53:00,
2013-07-23 18:57:00,86.2,67.6,29.66,West,280,3.0,4.0,54,0.00,,,0.01,Wunderground v.1.15,2013-07-23 22:57:00,
2013-07-23 18:59:00,86.2,67.6,29.66,West,277,3.0,4.0,54,0.00,,,0.01,Wunderground v.1.15,2013-07-23 22:59:00,
2013-07-23 19:02:00,86.2,68.1,29.67,West,267,3.0,4.0,55,0.00,,,0.01,Wunderground v.1.15,2013-07-23 23:02:00,
2013-07-23 19:04:00,86.1,68.0,29.66,WSW,256,3.0,4.0,55,0.00,,,0.01,Wunderground v.1.15,2013-07-23 23:04:00,
2013-07-23 19:08:00,86.1,68.6,29.66,WSW,240,2.0,4.0,56,0.00,,,0.01,Wunderground v.1.15,2013-07-23 23:08:00,
2013-07-23 19:10:00,86.1,68.0,29.66,West,271,2.0,2.0,55,0.00,,,0.01,Wunderground v.1.15,2013-07-23 23:10:00,
2013-07-23 19:13:00,86.3,68.2,29.66,West,264,2.0,2.0,55,0.00,,,0.01,Wunderground v.1.15,2013-07-23 23:13:00,
2013-07-23 19:16:00,86.3,68.2,29.66,WSW,256,1.0,2.0,55,0.00,,,0.01,Wunderground v.1.15,2013-07-23 23:16:00,
2013-07-23 19:18:00,86.1,68.0,29.66,West,276,1.0,2.0,55,0.00,,,0.01,Wunderground v.1.15,2013-07-23 23:18:00,
2013-07-23 19:25:00,85.8,69.3,29.66,WSW,253,1.0,2.0,58,0.00,,,0.01,Wunderground v.1.15,2013-07-23 23:25:00,
2013-07-23 19:29:00,85.5,69.0,29.66,West,260,1.0,2.0,58,0.00,,,0.01,Wunderground v.1.15,2013-07-23 23:29:00,
2013-07-23 19:31:00,85.3,69.3,29.66,West,269,1.0,2.0,59,0.00,,,0.01,Wunderground v.1.15,2013-07-23 23:31:00,
2013-07-23 19:33:00,85.1,68.7,29.66,West,262,1.0,2.0,58,0.00,,,0.01,Wunderground v.1.15,2013-07-23 23:33:00,
2013-07-23 19:35:00,85.0,69.1,29.66,West,262,1.0,2.0,59,0.00,,,0.01,Wunderground v.1.15,2013-07-23 23:35:00,
2013-07-23 19:38:00,84.9,69.9,29.66,West,262,1.0,2.0,61,0.00,,,0.01,Wunderground v.1.15,2013-07-23 23:38:00,
2013-07-23 19:42:00,84.5,70.0,29.67,West,262,0.0,1.0,62,0.00,,,0.01,Wunderground v.1.15,2013-07-23 23:42:00,
2013-07-23 19:43:00,84.4,70.4,29.67,West,262,0.0,1.0,63,0.00,,,0.01,Wunderground v.1.15,2013-07-23 23:43:00,
2013-07-23 19:44:00,84.3,70.8,29.67,West,262,0.0,1.0,64,0.00,,,0.01,Wunderground v.1.15,2013-07-23 23:44:00,
2013-07-23 19:46:00,84.1,70.6,29.67,West,262,0.0,1.0,64,0.00,,,0.01,Wunderground v.1.15,2013-07-23 23:46:00,
2013-07-23 19:48:00,83.6,71.0,29.67,West,262,0.0,1.0,66,0.00,,,0.01,Wunderground v.1.15,2013-07-23 23:48:00,
2013-07-23 19:52:00,82.9,70.4,29.67,West,263,0.0,1.0,66,0.00,,,0.01,Wunderground v.1.15,2013-07-23 23:52:00,
2013-07-23 19:53:00,82.8,70.7,29.67,West,263,0.0,1.0,67,0.00,,,0.01,Wunderground v.1.15,2013-07-23 23:53:00,
2013-07-23 19:54:00,82.7,71.1,29.67,West,263,0.0,1.0,68,0.00,,,0.01,Wunderground v.1.15,2013-07-23 23:54:00,
2013-07-23 19:59:00,82.1,70.5,29.67,West,271,0.0,1.0,68,0.00,,,0.01,Wunderground v.1.15,2013-07-23 23:59:00,
2013-07-23 20:01:00,81.8,69.8,29.67,West,270,0.0,2.0,67,0.00,,,0.01,Wunderground v.1.15,2013-07-24 00:01:00,
2013-07-23 20:06:00,81.1,71.6,29.68,West,270,1.0,2.0,73,0.00,,,0.01,Wunderground v.1.15,2013-07-24 00:06:00,
2013-07-23 20:10:00,80.2,71.6,29.68,West,270,0.0,0.0,75,0.00,,,0.01,Wunderground v.1.15,2013-07-24 00:10:00,
2013-07-23 20:12:00,79.7,70.3,29.68,West,270,0.0,1.0,73,0.00,,,0.01,Wunderground v.1.15,2013-07-24 00:12:00,
2013-07-23 20:14:00,79.5,70.1,29.68,West,271,0.0,1.0,73,0.00,,,0.01,Wunderground v.1.15,2013-07-24 00:14:00,
2013-07-23 20:16:00,79.2,70.2,29.68,West,271,1.0,1.0,74,0.00,,,0.01,Wunderground v.1.15,2013-07-24 00:16:00,
2013-07-23 20:18:00,78.9,70.7,29.68,West,270,1.0,1.0,76,0.00,,,0.01,Wunderground v.1.15,2013-07-24 00:18:00,
2013-07-23 20:20:00,78.7,70.5,29.68,West,270,1.0,1.0,76,0.00,,,0.01,Wunderground v.1.15,2013-07-24 00:20:00,
2013-07-23 20:22:00,78.4,70.2,29.68,West,269,1.0,2.0,76,0.00,,,0.01,Wunderground v.1.15,2013-07-24 00:22:00,
2013-07-23 20:24:00,77.9,69.7,29.68,West,271,1.0,2.0,76,0.00,,,0.01,Wunderground v.1.15,2013-07-24 00:24:00,
2013-07-23 20:25:00,77.6,69.0,29.68,West,266,1.0,2.0,75,0.00,,,0.01,Wunderground v.1.15,2013-07-24 00:25:00,
2013-07-23 20:27:00,77.3,68.8,29.68,West,265,2.0,2.0,75,0.00,,,0.01,Wunderground v.1.15,2013-07-24 00:27:00,
2013-07-23 20:31:00,77.0,68.5,29.68,West,264,1.0,2.0,75,0.00,,,0.01,Wunderground v.1.15,2013-07-24 00:31:00,
2013-07-23 20:36:00,76.8,68.7,29.68,West,264,1.0,2.0,76,0.00,,,0.01,Wunderground v.1.15,2013-07-24 00:36:00,
2013-07-23 20:38:00,76.8,68.7,29.68,West,264,0.0,2.0,76,0.00,,,0.01,Wunderground v.1.15,2013-07-24 00:38:00,
2013-07-23 20:40:00,76.6,68.5,29.68,SW,226,0.0,2.0,76,0.00,,,0.01,Wunderground v.1.15,2013-07-24 00:40:00,
2013-07-23 20:42:00,76.4,68.3,29.68,WSW,253,1.0,2.0,76,0.00,,,0.01,Wunderground v.1.15,2013-07-24 00:42:00,
2013-07-23 20:46:00,76.2,68.5,29.68,WSW,250,1.0,2.0,77,0.00,,,0.01,Wunderground v.1.15,2013-07-24 00:46:00,
2013-07-23 20:47:00,76.1,68.4,29.68,WSW,250,1.0,2.0,77,0.00,,,0.01,Wunderground v.1.15,2013-07-24 00:47:00,
2013-07-23 20:51:00,75.9,68.2,29.69,WSW,250,1.0,1.0,77,0.00,,,0.01,Wunderground v.1.15,2013-07-24 00:51:00,
2013-07-23 20:53:00,75.8,68.1,29.69,WSW,245,1.0,2.0,77,0.00,,,0.01,Wunderground v.1.15,2013-07-24 00:53:00,
2013-07-23 20:56:00,75.7,68.0,29.69,SSW,205,1.0,2.0,77,0.00,,,0.01,Wunderground v.1.15,2013-07-24 00:56:00,
2013-07-23 21:00:00,75.9,67.8,29.69,SSW,203,1.0,2.0,76,0.00,,,0.01,Wunderground v.1.15,2013-07-24 01:00:00,
2013-07-23 21:04:00,76.0,67.9,29.69,SSW,210,1.0,2.0,76,0.00,,,0.01,Wunderground v.1.15,2013-07-24 01:04:00,
2013-07-23 21:06:00,76.1,68.4,29.69,SSW,209,1.0,2.0,77,0.00,,,0.01,Wunderground v.1.15,2013-07-24 01:06:00,
2013-07-23 21:08:00,76.0,67.9,29.69,SSW,210,0.0,2.0,76,0.00,,,0.01,Wunderground v.1.15,2013-07-24 01:08:00,
2013-07-23 21:13:00,75.7,68.0,29.69,SSW,210,0.0,0.0,77,0.00,,,0.01,Wunderground v.1.15,2013-07-24 01:13:00,
2013-07-23 21:15:00,75.6,67.9,29.69,SSW,205,0.0,0.0,77,0.00,,,0.01,Wunderground v.1.15,2013-07-24 01:15:00,
2013-07-23 21:21:00,75.6,68.6,29.70,South,172,0.0,0.0,79,0.00,,,0.01,Wunderground v.1.15,2013-07-24 01:21:00,
2013-07-23 21:24:00,75.4,68.4,29.70,SE,143,0.0,0.0,79,0.00,,,0.01,Wunderground v.1.15,2013-07-24 01:24:00,
2013-07-23 21:26:00,75.3,68.3,29.70,ESE,117,0.0,0.0,79,0.00,,,0.01,Wunderground v.1.15,2013-07-24 01:26:00,
2013-07-23 21:28:00,75.3,68.3,29.70,East,99,0.0,0.0,79,0.00,,,0.01,Wunderground v.1.15,2013-07-24 01:28:00,
2013-07-23 21:29:00,75.3,68.7,29.70,ESE,115,0.0,0.0,80,0.00,,,0.01,Wunderground v.1.15,2013-07-24 01:29:00,
2013-07-23 21:31:00,75.2,68.6,29.70,WSW,250,0.0,0.0,80,0.00,,,0.01,Wunderground v.1.15,2013-07-24 01:31:00,
2013-07-23 21:33:00,75.2,68.6,29.70,WSW,253,0.0,0.0,80,0.00,,,0.01,Wunderground v.1.15,2013-07-24 01:33:00,
2013-07-23 21:37:00,74.8,68.6,29.70,WSW,255,0.0,0.0,81,0.00,,,0.01,Wunderground v.1.15,2013-07-24 01:37:00,
2013-07-23 21:39:00,74.7,68.5,29.70,WSW,255,0.0,0.0,81,0.00,,,0.01,Wunderground v.1.15,2013-07-24 01:39:00,
2013-07-23 21:41:00,74.7,68.5,29.70,West,259,0.0,0.0,81,0.00,,,0.01,Wunderground v.1.15,2013-07-24 01:41:00,
2013-07-23 21:46:00,74.2,68.3,29.70,West,262,0.0,0.0,82,0.00,,,0.01,Wunderground v.1.15,2013-07-24 01:46:00,
2013-07-23 21:48:00,74.1,68.3,29.70,West,262,0.0,0.0,82,0.00,,,0.01,Wunderground v.1.15,2013-07-24 01:48:00,
2013-07-23 21:52:00,73.9,68.4,29.70,West,262,0.0,0.0,83,0.00,,,0.01,Wunderground v.1.15,2013-07-24 01:52:00,
2013-07-23 21:54:00,73.8,68.3,29.70,West,261,0.0,0.0,83,0.00,,,0.01,Wunderground v.1.15,2013-07-24 01:54:00,
2013-07-23 21:56:00,73.8,68.3,29.70,West,262,0.0,0.0,83,0.00,,,0.01,Wunderground v.1.15,2013-07-24 01:56:00,
2013-07-23 21:58:00,73.6,68.1,29.70,West,261,0.0,0.0,83,0.00,,,0.01,Wunderground v.1.15,2013-07-24 01:58:00,
2013-07-23 22:02:00,73.2,68.1,29.70,West,261,0.0,0.0,84,0.00,,,0.01,Wunderground v.1.15,2013-07-24 02:02:00,
2013-07-23 22:04:00,73.1,68.0,29.70,West,261,0.0,0.0,84,0.00,,,0.01,Wunderground v.1.15,2013-07-24 02:04:00,
2013-07-23 22:10:00,72.8,68.0,29.70,West,262,0.0,0.0,85,0.00,,,0.01,Wunderground v.1.15,2013-07-24 02:10:00,
2013-07-23 22:13:00,72.6,67.8,29.70,West,261,0.0,0.0,85,0.00,,,0.01,Wunderground v.1.15,2013-07-24 02:13:00,
2013-07-23 22:17:00,72.4,68.0,29.70,West,263,0.0,0.0,86,0.00,,,0.01,Wunderground v.1.15,2013-07-24 02:17:00,
2013-07-23 22:19:00,72.1,67.7,29.70,West,262,0.0,0.0,86,0.00,,,0.01,Wunderground v.1.15,2013-07-24 02:19:00,
2013-07-23 22:23:00,71.7,67.6,29.70,West,263,0.0,0.0,87,0.00,,,0.01,Wunderground v.1.15,2013-07-24 02:23:00,
2013-07-23 22:25:00,71.6,67.5,29.70,West,263,0.0,0.0,87,0.00,,,0.01,Wunderground v.1.15,2013-07-24 02:25:00,
2013-07-23 22:26:00,71.6,67.5,29.70,West,263,0.0,0.0,87,0.00,,,0.01,Wunderground v.1.15,2013-07-24 02:26:00,
2013-07-23 22:30:00,71.5,67.4,29.71,West,263,0.0,0.0,87,0.00,,,0.01,Wunderground v.1.15,2013-07-24 02:30:00,
2013-07-23 22:34:00,71.3,67.2,29.71,West,263,0.0,0.0,87,0.00,,,0.01,Wunderground v.1.15,2013-07-24 02:34:00,
2013-07-23 22:36:00,71.1,67.4,29.71,West,262,0.0,0.0,88,0.00,,,0.01,Wunderground v.1.15,2013-07-24 02:36:00,
2013-07-23 22:38:00,71.0,67.3,29.71,WSW,257,0.0,0.0,88,0.00,,,0.01,Wunderground v.1.15,2013-07-24 02:38:00,
2013-07-23 22:41:00,71.0,67.3,29.71,WSW,249,0.0,2.0,88,0.00,,,0.01,Wunderground v.1.15,2013-07-24 02:41:00,
2013-07-23 22:45:00,70.9,67.2,29.71,SW,235,1.0,2.0,88,0.00,,,0.01,Wunderground v.1.15,2013-07-24 02:45:00,
2013-07-23 22:48:00,71.0,67.3,29.71,SSW,210,1.0,2.0,88,0.00,,,0.01,Wunderground v.1.15,2013-07-24 02:48:00,
2013-07-23 22:52:00,71.5,67.1,29.71,WSW,245,1.0,2.0,86,0.00,,,0.01,Wunderground v.1.15,2013-07-24 02:52:00,
2013-07-23 22:54:00,71.6,67.2,29.71,WSW,250,1.0,2.0,86,0.00,,,0.01,Wunderground v.1.15,2013-07-24 02:54:00,
2013-07-23 22:58:00,71.5,67.1,29.72,WSW,250,1.0,2.0,86,0.00,,,0.01,Wunderground v.1.15,2013-07-24 02:58:00,
2013-07-23 23:00:00,71.4,67.0,29.72,West,271,1.0,1.0,86,0.00,,,0.01,Wunderground v.1.15,2013-07-24 03:00:00,
2013-07-23 23:01:00,71.4,67.0,29.72,West,271,1.0,1.0,86,0.00,,,0.01,Wunderground v.1.15,2013-07-24 03:01:00,
2013-07-23 23:04:00,71.3,66.9,29.72,West,271,1.0,1.0,86,0.00,,,0.01,Wunderground v.1.15,2013-07-24 03:04:00,
2013-07-23 23:06:00,71.2,66.8,29.72,West,271,0.0,2.0,86,0.00,,,0.01,Wunderground v.1.15,2013-07-24 03:06:00,
2013-07-23 23:08:00,71.0,66.6,29.72,West,267,1.0,2.0,86,0.00,,,0.01,Wunderground v.1.15,2013-07-24 03:08:00,
2013-07-23 23:10:00,70.8,66.4,29.72,West,269,1.0,2.0,86,0.00,,,0.01,Wunderground v.1.15,2013-07-24 03:10:00,
2013-07-23 23:12:00,70.7,66.6,29.72,West,269,1.0,2.0,87,0.00,,,0.01,Wunderground v.1.15,2013-07-24 03:12:00,
2013-07-23 23:15:00,70.8,66.4,29.72,West,267,1.0,2.0,86,0.00,,,0.01,Wunderground v.1.15,2013-07-24 03:15:00,
2013-07-23 23:17:00,70.7,66.3,29.72,West,269,1.0,2.0,86,0.00,,,0.01,Wunderground v.1.15,2013-07-24 03:17:00,
2013-07-23 23:18:00,70.8,66.4,29.72,West,269,1.0,2.0,86,0.00,,,0.01,Wunderground v.1.15,2013-07-24 03:18:00,
2013-07-23 23:23:00,70.8,66.4,29.73,WSW,242,0.0,0.0,86,0.00,,,0.01,Wunderground v.1.15,2013-07-24 03:23:00,
2013-07-23 23:25:00,70.7,66.3,29.73,West,264,0.0,2.0,86,0.00,,,0.01,Wunderground v.1.15,2013-07-24 03:25:00,
2013-07-23 23:29:00,70.4,66.3,29.73,West,264,0.0,2.0,87,0.00,,,0.01,Wunderground v.1.15,2013-07-24 03:29:00,
2013-07-23 23:31:00,70.3,66.2,29.73,West,264,0.0,0.0,87,0.00,,,0.01,Wunderground v.1.15,2013-07-24 03:31:00,
2013-07-23 23:34:00,70.2,66.1,29.73,West,263,0.0,1.0,87,0.00,,,0.01,Wunderground v.1.15,2013-07-24 03:34:00,
2013-07-23 23:36:00,70.1,66.0,29.73,West,263,0.0,1.0,87,0.00,,,0.01,Wunderground v.1.15,2013-07-24 03:36:00,
2013-07-23 23:40:00,70.3,66.6,29.73,East,95,1.0,1.0,88,0.00,,,0.01,Wunderground v.1.15,2013-07-24 03:40:00,
2013-07-23 23:41:00,70.3,66.6,29.73,ESE,105,1.0,1.0,88,0.00,,,0.01,Wunderground v.1.15,2013-07-24 03:41:00,
2013-07-23 23:45:00,70.3,66.6,29.73,ESE,105,1.0,1.0,88,0.00,,,0.01,Wunderground v.1.15,2013-07-24 03:45:00,
2013-07-23 23:47:00,70.3,66.9,29.73,ESE,106,1.0,1.0,89,0.00,,,0.01,Wunderground v.1.15,2013-07-24 03:47:00,
2013-07-23 23:49:00,70.3,66.9,29.73,ESE,106,1.0,1.0,89,0.00,,,0.01,Wunderground v.1.15,2013-07-24 03:49:00,
2013-07-23 23:52:00,70.2,66.8,29.73,ESE,105,0.0,1.0,89,0.00,,,0.01,Wunderground v.1.15,2013-07-24 03:52:00,
2013-07-23 23:53:00,70.2,66.8,29.73,ESE,106,0.0,1.0,89,0.00,,,0.01,Wunderground v.1.15,2013-07-24 03:53:00,
2013-07-23 23:56:00,70.2,66.8,29.73,ESE,106,0.0,1.0,89,0.00,,,0.01,Wunderground v.1.15,2013-07-24 03:56:00,